Observation data for Fort McKavett on 04/09/2020      Previous  Date  Next       Current Mesonet Observations  Soil Data  Daily Summary Page  Observations in Plain Language
KMC1 090500Z 18003KT 19/15 A2998 RMK A01 T01890149  RH  077%=      5-min Rain = 0
KMC1 090501Z 18003KT 19/15 A2998 RMK A01 T01880147  RH  077%=      5-min Rain = 0
KMC1 090502Z 19003KT 19/15 A2998 RMK A01 T01880147  RH  077%=      5-min Rain = 0
KMC1 090503Z 20003KT 19/15 A2998 RMK A01 T01880147  RH  077%=      5-min Rain = 0
KMC1 090504Z 19003KT 19/15 A2998 RMK A01 T01880147  RH  077%=      5-min Rain = 0
KMC1 090505Z 18003KT 19/15 A2998 RMK A01 T01880147  RH  077%=      5-min Rain = 0
KMC1 090506Z 17002KT 19/15 A2998 RMK A01 T01890147  RH  077%=      5-min Rain = 0
KMC1 090507Z 18002KT 19/15 A2998 RMK A01 T01880146  RH  076%=      5-min Rain = 0
KMC1 090508Z 21001KT 19/15 A2998 RMK A01 T01890146  RH  076%=      5-min Rain = 0
KMC1 090509Z 17002KT 19/15 A2998 RMK A01 T01890146  RH  076%=      5-min Rain = 0
KMC1 090510Z 16002KT 19/15 A2998 RMK A01 T01880146  RH  076%=      5-min Rain = 0
KMC1 090511Z 20001KT 19/15 A2998 RMK A01 T01880147  RH  077%=      5-min Rain = 0
KMC1 090512Z 17002KT 19/15 A2998 RMK A01 T01880146  RH  077%=      5-min Rain = 0
KMC1 090513Z 16002KT 19/15 A2998 RMK A01 T01880146  RH  077%=      5-min Rain = 0
KMC1 090514Z 16002KT 19/15 A2998 RMK A01 T01870146  RH  077%=      5-min Rain = 0
KMC1 090515Z 19001KT 19/15 A2998 RMK A01 T01870146  RH  077%=      5-min Rain = 0
KMC1 090516Z 17001KT 19/15 A2998 RMK A01 T01870146  RH  077%=      5-min Rain = 0
KMC1 090517Z 16001KT 19/15 A2998 RMK A01 T01870147  RH  077%=      5-min Rain = 0
KMC1 090518Z 18001KT 19/15 A2998 RMK A01 T01870147  RH  078%=      5-min Rain = 0
KMC1 090519Z 19002KT 19/15 A2997 RMK A01 T01860147  RH  078%=      5-min Rain = 0
KMC1 090520Z 18002KT 19/15 A2997 RMK A01 T01860146  RH  078%=      5-min Rain = 0
KMC1 090521Z 18002KT 19/15 A2997 RMK A01 T01860146  RH  077%=      5-min Rain = 0
KMC1 090522Z 16003KT 19/15 A2997 RMK A01 T01860146  RH  077%=      5-min Rain = 0
KMC1 090523Z 16003KT 19/15 A2997 RMK A01 T01860146  RH  078%=      5-min Rain = 0
KMC1 090524Z 17003KT 19/15 A2997 RMK A01 T01860146  RH  078%=      5-min Rain = 0
KMC1 090525Z 18003KT 19/15 A2997 RMK A01 T01860146  RH  078%=      5-min Rain = 0
KMC1 090526Z 18003KT 19/15 A2997 RMK A01 T01860146  RH  078%=      5-min Rain = 0
KMC1 090527Z 18003KT 19/15 A2997 RMK A01 T01850146  RH  078%=      5-min Rain = 0
KMC1 090528Z 19003KT 19/15 A2997 RMK A01 T01850145  RH  078%=      5-min Rain = 0
KMC1 090529Z 19002KT 19/15 A2998 RMK A01 T01850145  RH  078%=      5-min Rain = 0
KMC1 090530Z 18003KT 18/15 A2998 RMK A01 T01840145  RH  078%=      5-min Rain = 0
KMC1 090531Z 18002KT 18/15 A2998 RMK A01 T01840146  RH  079%=      5-min Rain = 0
KMC1 090532Z 19003KT 18/15 A2998 RMK A01 T01830146  RH  079%=      5-min Rain = 0
KMC1 090533Z 19003KT 18/15 A2998 RMK A01 T01830146  RH  079%=      5-min Rain = 0
KMC1 090534Z 19003KT 18/15 A2997 RMK A01 T01830147  RH  079%=      5-min Rain = 0
KMC1 090535Z 18004KT 18/15 A2997 RMK A01 T01830146  RH  079%=      5-min Rain = 0
KMC1 090536Z 19003KT 18/15 A2997 RMK A01 T01830146  RH  079%=      5-min Rain = 0
KMC1 090537Z 19003KT 18/15 A2997 RMK A01 T01840147  RH  079%=      5-min Rain = 0
KMC1 090538Z 19002KT 18/15 A2997 RMK A01 T01830147  RH  079%=      5-min Rain = 0
KMC1 090539Z 23001KT 18/15 A2998 RMK A01 T01830148  RH  080%=      5-min Rain = 0
KMC1 090540Z 27001KT 18/15 A2998 RMK A01 T01820149  RH  081%=      5-min Rain = 0
KMC1 090541Z 30000KT 18/15 A2998 RMK A01 T01810149  RH  082%=      5-min Rain = 0
KMC1 090542Z 27001KT 18/15 A2998 RMK A01 T01810150  RH  082%=      5-min Rain = 0
KMC1 090543Z 26000KT 18/15 A2997 RMK A01 T01800150  RH  082%=      5-min Rain = 0
KMC1 090544Z 00000KT 18/15 A2997 RMK A01 T01800150  RH  082%=      5-min Rain = 0
KMC1 090545Z 31000KT 18/15 A2997 RMK A01 T01800150  RH  083%=      5-min Rain = 0
KMC1 090546Z 00000KT 18/15 A2997 RMK A01 T01790150  RH  083%=      5-min Rain = 0
KMC1 090547Z 00000KT 18/15 A2997 RMK A01 T01790150  RH  083%=      5-min Rain = 0
KMC1 090548Z 00000KT 18/15 A2997 RMK A01 T01790150  RH  083%=      5-min Rain = 0
KMC1 090549Z 00000KT 18/15 A2997 RMK A01 T01780149  RH  083%=      5-min Rain = 0
KMC1 090550Z 00000KT 18/15 A2997 RMK A01 T01780150  RH  083%=      5-min Rain = 0
KMC1 090551Z 00000KT 18/15 A2997 RMK A01 T01780149  RH  083%=      5-min Rain = 0
KMC1 090552Z 00000KT 18/15 A2997 RMK A01 T01780149  RH  083%=      5-min Rain = 0
KMC1 090553Z 10000KT 18/15 A2997 RMK A01 T01770150  RH  084%=      5-min Rain = 0
KMC1 090554Z 10001KT 18/15 A2997 RMK A01 T01770150  RH  084%=      5-min Rain = 0
KMC1 090555Z 10000KT 18/15 A2997 RMK A01 T01770150  RH  084%=      5-min Rain = 0
KMC1 090556Z 00000KT 18/15 A2997 RMK A01 T01770149  RH  084%=      5-min Rain = 0
KMC1 090557Z 00000KT 18/15 A2997 RMK A01 T01770150  RH  084%=      5-min Rain = 0
KMC1 090558Z 00000KT 18/15 A2997 RMK A01 T01760150  RH  085%=      5-min Rain = 0
KMC1 090559Z 00000KT 18/15 A2997 RMK A01 T01750150  RH  085%=      5-min Rain = 0
KMC1 090600Z 00000KT 17/15 A2997 RMK A01 T01740149  RH  085%=      5-min Rain = 0
KMC1 090601Z 00000KT 17/15 A2997 RMK A01 T01740148  RH  085%=      5-min Rain = 0
KMC1 090602Z 00000KT 17/15 A2997 RMK A01 T01730148  RH  085%=      5-min Rain = 0
KMC1 090603Z 00000KT 17/15 A2997 RMK A01 T01730148  RH  085%=      5-min Rain = 0
KMC1 090604Z 00000KT 17/15 A2997 RMK A01 T01720147  RH  085%=      5-min Rain = 0
KMC1 090605Z 00000KT 17/15 A2997 RMK A01 T01720147  RH  085%=      5-min Rain = 0
KMC1 090606Z 00000KT 17/15 A2997 RMK A01 T01720147  RH  086%=      5-min Rain = 0
KMC1 090607Z 00000KT 17/15 A2997 RMK A01 T01710147  RH  086%=      5-min Rain = 0
KMC1 090608Z 00000KT 17/15 A2997 RMK A01 T01710147  RH  086%=      5-min Rain = 0
KMC1 090609Z 00000KT 17/15 A2997 RMK A01 T01710147  RH  086%=      5-min Rain = 0
KMC1 090610Z 00000KT 17/15 A2997 RMK A01 T01700147  RH  086%=      5-min Rain = 0
KMC1 090611Z 00000KT 17/15 A2997 RMK A01 T01700147  RH  086%=      5-min Rain = 0
KMC1 090612Z 25000KT 17/15 A2997 RMK A01 T01700147  RH  086%=      5-min Rain = 0
KMC1 090613Z 25001KT 17/15 A2997 RMK A01 T01700147  RH  086%=      5-min Rain = 0
KMC1 090614Z 25001KT 17/15 A2997 RMK A01 T01700147  RH  086%=      5-min Rain = 0
KMC1 090615Z 24001KT 17/15 A2997 RMK A01 T01690147  RH  087%=      5-min Rain = 0
KMC1 090616Z 23002KT 17/15 A2997 RMK A01 T01690146  RH  087%=      5-min Rain = 0
KMC1 090617Z 23002KT 17/15 A2997 RMK A01 T01690146  RH  087%=      5-min Rain = 0
KMC1 090618Z 22002KT 17/15 A2997 RMK A01 T01690146  RH  087%=      5-min Rain = 0
KMC1 090619Z 21002KT 17/15 A2997 RMK A01 T01680147  RH  087%=      5-min Rain = 0
KMC1 090620Z 21003KT 17/15 A2997 RMK A01 T01680147  RH  087%=      5-min Rain = 0
KMC1 090621Z 21003KT 17/15 A2997 RMK A01 T01680148  RH  088%=      5-min Rain = 0
KMC1 090622Z 21003KT 17/15 A2997 RMK A01 T01680147  RH  087%=      5-min Rain = 0
KMC1 090623Z 20003KT 17/15 A2997 RMK A01 T01680147  RH  087%=      5-min Rain = 0
KMC1 090624Z 19004KT 17/15 A2997 RMK A01 T01680147  RH  087%=      5-min Rain = 0
KMC1 090625Z 19004KT 17/15 A2997 RMK A01 T01680147  RH  087%=      5-min Rain = 0
KMC1 090626Z 19004KT 17/15 A2997 RMK A01 T01690146  RH  087%=      5-min Rain = 0
KMC1 090627Z 19004KT 17/15 A2997 RMK A01 T01700146  RH  086%=      5-min Rain = 0
KMC1 090628Z 19004KT 17/15 A2997 RMK A01 T01710145  RH  085%=      5-min Rain = 0
KMC1 090629Z 19004KT 17/15 A2997 RMK A01 T01710145  RH  084%=      5-min Rain = 0
KMC1 090630Z 18005KT 17/15 A2997 RMK A01 T01720145  RH  084%=      5-min Rain = 0
KMC1 090631Z 17004KT 17/14 A2997 RMK A01 T01720144  RH  084%=      5-min Rain = 0
KMC1 090632Z 17004KT 17/14 A2997 RMK A01 T01720144  RH  084%=      5-min Rain = 0
KMC1 090633Z 17005KT 17/14 A2997 RMK A01 T01710144  RH  084%=      5-min Rain = 0
KMC1 090634Z 17006KT 17/14 A2997 RMK A01 T01710144  RH  084%=      5-min Rain = 0
KMC1 090635Z 17006KT 17/14 A2997 RMK A01 T01720144  RH  084%=      5-min Rain = 0
KMC1 090636Z 17005KT 17/15 A2997 RMK A01 T01740145  RH  083%=      5-min Rain = 0
KMC1 090637Z 17005KT 18/15 A2997 RMK A01 T01750145  RH  083%=      5-min Rain = 0
KMC1 090638Z 17005KT 18/15 A2997 RMK A01 T01760146  RH  082%=      5-min Rain = 0
KMC1 090639Z 17005KT 18/15 A2997 RMK A01 T01770146  RH  082%=      5-min Rain = 0
KMC1 090640Z 17005KT 18/15 A2997 RMK A01 T01780146  RH  082%=      5-min Rain = 0
KMC1 090641Z 18005KT 18/15 A2997 RMK A01 T01780146  RH  081%=      5-min Rain = 0
KMC1 090642Z 18005KT 18/15 A2997 RMK A01 T01790146  RH  081%=      5-min Rain = 0
KMC1 090643Z 18005KT 18/15 A2997 RMK A01 T01800146  RH  081%=      5-min Rain = 0
KMC1 090644Z 18004KT 18/15 A2997 RMK A01 T01800146  RH  080%=      5-min Rain = 0
KMC1 090645Z 18004KT 18/15 A2997 RMK A01 T01800146  RH  080%=      5-min Rain = 0
KMC1 090646Z 18004KT 18/15 A2997 RMK A01 T01800146  RH  081%=      5-min Rain = 0
KMC1 090647Z 18004KT 18/15 A2997 RMK A01 T01800146  RH  081%=      5-min Rain = 0
KMC1 090648Z 18004KT 18/15 A2997 RMK A01 T01790146  RH  081%=      5-min Rain = 0
KMC1 090649Z 18004KT 18/15 A2997 RMK A01 T01790146  RH  081%=      5-min Rain = 0
KMC1 090650Z 18003KT 18/15 A2997 RMK A01 T01780146  RH  081%=      5-min Rain = 0
KMC1 090651Z 19003KT 18/15 A2997 RMK A01 T01770146  RH  082%=      5-min Rain = 0
KMC1 090652Z 18003KT 18/15 A2997 RMK A01 T01760146  RH  082%=      5-min Rain = 0
KMC1 090653Z 17003KT 18/15 A2997 RMK A01 T01760145  RH  082%=      5-min Rain = 0
KMC1 090654Z 17003KT 18/15 A2997 RMK A01 T01750145  RH  083%=      5-min Rain = 0
KMC1 090655Z 17004KT 17/15 A2997 RMK A01 T01740145  RH  083%=      5-min Rain = 0
KMC1 090656Z 17004KT 17/15 A2997 RMK A01 T01740146  RH  083%=      5-min Rain = 0
KMC1 090657Z 17004KT 17/15 A2997 RMK A01 T01740145  RH  083%=      5-min Rain = 0
KMC1 090658Z 17004KT 17/15 A2997 RMK A01 T01740145  RH  083%=      5-min Rain = 0
KMC1 090659Z 17004KT 17/15 A2997 RMK A01 T01740145  RH  083%=      5-min Rain = 0
KMC1 090700Z 17004KT 18/15 A2997 RMK A01 T01750146  RH  083%=      5-min Rain = 0
KMC1 090701Z 17004KT 18/15 A2997 RMK A01 T01750145  RH  083%=      5-min Rain = 0
KMC1 090702Z 17003KT 18/15 A2997 RMK A01 T01750145  RH  083%=      5-min Rain = 0
KMC1 090703Z 17004KT 18/15 A2997 RMK A01 T01750145  RH  083%=      5-min Rain = 0
KMC1 090704Z 17003KT 18/15 A2997 RMK A01 T01750145  RH  083%=      5-min Rain = 0
KMC1 090705Z 17003KT 18/15 A2997 RMK A01 T01750145  RH  083%=      5-min Rain = 0
KMC1 090706Z 17003KT 18/15 A2997 RMK A01 T01750145  RH  083%=      5-min Rain = 0
KMC1 090707Z 17003KT 18/15 A2997 RMK A01 T01750145  RH  083%=      5-min Rain = 0
KMC1 090708Z 17003KT 18/15 A2997 RMK A01 T01750145  RH  083%=      5-min Rain = 0
KMC1 090709Z 17002KT 17/14 A2997 RMK A01 T01740144  RH  083%=      5-min Rain = 0
KMC1 090710Z 16002KT 17/15 A2997 RMK A01 T01740145  RH  083%=      5-min Rain = 0
KMC1 090711Z 16002KT 17/15 A2997 RMK A01 T01730145  RH  083%=      5-min Rain = 0
KMC1 090712Z 16002KT 17/15 A2997 RMK A01 T01730146  RH  084%=      5-min Rain = 0
KMC1 090713Z 17002KT 17/15 A2997 RMK A01 T01740146  RH  084%=      5-min Rain = 0
KMC1 090714Z 17002KT 17/15 A2997 RMK A01 T01740145  RH  083%=      5-min Rain = 0
KMC1 090715Z 17001KT 17/15 A2997 RMK A01 T01740145  RH  083%=      5-min Rain = 0
KMC1 090716Z 18001KT 17/15 A2997 RMK A01 T01740145  RH  083%=      5-min Rain = 0
KMC1 090717Z 20001KT 18/15 A2997 RMK A01 T01750146  RH  083%=      5-min Rain = 0
KMC1 090718Z 20000KT 18/15 A2997 RMK A01 T01750146  RH  083%=      5-min Rain = 0
KMC1 090719Z 20001KT 18/15 A2997 RMK A01 T01750145  RH  083%=      5-min Rain = 0
KMC1 090720Z 20001KT 18/15 A2997 RMK A01 T01750145  RH  083%=      5-min Rain = 0
KMC1 090721Z 20001KT 17/15 A2996 RMK A01 T01740145  RH  083%=      5-min Rain = 0
KMC1 090722Z 22001KT 17/14 A2996 RMK A01 T01730144  RH  083%=      5-min Rain = 0
KMC1 090723Z 21001KT 17/14 A2996 RMK A01 T01710144  RH  084%=      5-min Rain = 0
KMC1 090724Z 20001KT 17/14 A2996 RMK A01 T01700144  RH  085%=      5-min Rain = 0
KMC1 090725Z 19001KT 17/14 A2996 RMK A01 T01680144  RH  086%=      5-min Rain = 0
KMC1 090726Z 18002KT 17/14 A2996 RMK A01 T01670144  RH  086%=      5-min Rain = 0
KMC1 090727Z 17002KT 17/14 A2996 RMK A01 T01670144  RH  087%=      5-min Rain = 0
KMC1 090728Z 17002KT 17/14 A2996 RMK A01 T01660144  RH  087%=      5-min Rain = 0
KMC1 090729Z 17002KT 17/14 A2996 RMK A01 T01660144  RH  087%=      5-min Rain = 0
KMC1 090730Z 18002KT 17/14 A2996 RMK A01 T01650144  RH  087%=      5-min Rain = 0
KMC1 090731Z 18002KT 17/14 A2996 RMK A01 T01650144  RH  087%=      5-min Rain = 0
KMC1 090732Z 19002KT 16/14 A2996 RMK A01 T01640144  RH  088%=      5-min Rain = 0
KMC1 090733Z 20002KT 16/14 A2996 RMK A01 T01640144  RH  088%=      5-min Rain = 0
KMC1 090734Z 22001KT 16/15 A2996 RMK A01 T01630145  RH  089%=      5-min Rain = 0
KMC1 090735Z 22001KT 16/14 A2996 RMK A01 T01630144  RH  088%=      5-min Rain = 0
KMC1 090736Z 22001KT 16/14 A2996 RMK A01 T01620143  RH  089%=      5-min Rain = 0
KMC1 090737Z 23001KT 16/14 A2996 RMK A01 T01610143  RH  089%=      5-min Rain = 0
KMC1 090738Z 23001KT 16/14 A2996 RMK A01 T01610143  RH  089%=      5-min Rain = 0
KMC1 090739Z 25001KT 16/14 A2996 RMK A01 T01600143  RH  090%=      5-min Rain = 0
KMC1 090740Z 25002KT 16/14 A2996 RMK A01 T01600144  RH  090%=      5-min Rain = 0
KMC1 090741Z 24002KT 16/15 A2996 RMK A01 T01600145  RH  091%=      5-min Rain = 0
KMC1 090742Z 24002KT 16/15 A2996 RMK A01 T01600145  RH  091%=      5-min Rain = 0
KMC1 090743Z 24002KT 16/15 A2996 RMK A01 T01600145  RH  091%=      5-min Rain = 0
KMC1 090744Z 24002KT 16/15 A2996 RMK A01 T01600145  RH  091%=      5-min Rain = 0
KMC1 090745Z 23003KT 16/15 A2996 RMK A01 T01600145  RH  091%=      5-min Rain = 0
KMC1 090746Z 22003KT 16/15 A2996 RMK A01 T01600145  RH  091%=      5-min Rain = 0
KMC1 090747Z 22003KT 16/15 A2996 RMK A01 T01600145  RH  091%=      5-min Rain = 0
KMC1 090748Z 22003KT 16/15 A2996 RMK A01 T01600145  RH  091%=      5-min Rain = 0
KMC1 090749Z 22003KT 16/15 A2996 RMK A01 T01590145  RH  091%=      5-min Rain = 0
KMC1 090750Z 22003KT 16/15 A2996 RMK A01 T01590145  RH  091%=      5-min Rain = 0
KMC1 090751Z 21004KT 16/15 A2996 RMK A01 T01590145  RH  091%=      5-min Rain = 0
KMC1 090752Z 21004KT 16/14 A2996 RMK A01 T01590144  RH  091%=      5-min Rain = 0
KMC1 090753Z 21004KT 16/15 A2996 RMK A01 T01590145  RH  091%=      5-min Rain = 0
KMC1 090754Z 21004KT 16/15 A2996 RMK A01 T01590145  RH  091%=      5-min Rain = 0
KMC1 090755Z 20003KT 16/15 A2996 RMK A01 T01590145  RH  092%=      5-min Rain = 0
KMC1 090756Z 20003KT 16/15 A2996 RMK A01 T01590145  RH  092%=      5-min Rain = 0
KMC1 090757Z 19003KT 16/15 A2996 RMK A01 T01590145  RH  092%=      5-min Rain = 0
KMC1 090758Z 19003KT 16/15 A2996 RMK A01 T01590145  RH  092%=      5-min Rain = 0
KMC1 090759Z 19003KT 16/15 A2996 RMK A01 T01590146  RH  092%=      5-min Rain = 0
KMC1 090800Z 20003KT 16/15 A2996 RMK A01 T01590146  RH  092%=      5-min Rain = 0
KMC1 090801Z 19004KT 16/15 A2996 RMK A01 T01590146  RH  092%=      5-min Rain = 0
KMC1 090802Z 20004KT 16/15 A2996 RMK A01 T01590145  RH  092%=      5-min Rain = 0
KMC1 090803Z 19004KT 16/15 A2996 RMK A01 T01590146  RH  092%=      5-min Rain = 0
KMC1 090804Z 18005KT 16/15 A2996 RMK A01 T01600146  RH  091%=      5-min Rain = 0
KMC1 090805Z 19005KT 16/15 A2996 RMK A01 T01600146  RH  091%=      5-min Rain = 0
KMC1 090806Z 19004KT 16/15 A2995 RMK A01 T01610146  RH  090%=      5-min Rain = 0
KMC1 090807Z 19004KT 16/15 A2995 RMK A01 T01620146  RH  090%=      5-min Rain = 0
KMC1 090808Z 19004KT 16/15 A2995 RMK A01 T01630146  RH  090%=      5-min Rain = 0
KMC1 090809Z 19004KT 16/15 A2995 RMK A01 T01630146  RH  089%=      5-min Rain = 0
KMC1 090810Z 19004KT 16/15 A2995 RMK A01 T01640146  RH  089%=      5-min Rain = 0
KMC1 090811Z 19004KT 16/15 A2995 RMK A01 T01640146  RH  089%=      5-min Rain = 0
KMC1 090812Z 20004KT 16/15 A2995 RMK A01 T01640145  RH  088%=      5-min Rain = 0
KMC1 090813Z 20004KT 17/15 A2995 RMK A01 T01650146  RH  088%=      5-min Rain = 0
KMC1 090814Z 19004KT 17/15 A2995 RMK A01 T01650145  RH  088%=      5-min Rain = 0
KMC1 090815Z 19004KT 17/15 A2995 RMK A01 T01650145  RH  088%=      5-min Rain = 0
KMC1 090816Z 19004KT 16/15 A2995 RMK A01 T01640145  RH  088%=      5-min Rain = 0
KMC1 090817Z 20004KT 16/15 A2995 RMK A01 T01640145  RH  089%=      5-min Rain = 0
KMC1 090818Z 20004KT 16/15 A2995 RMK A01 T01640145  RH  089%=      5-min Rain = 0
KMC1 090819Z 20004KT 16/15 A2995 RMK A01 T01630145  RH  089%=      5-min Rain = 0
KMC1 090820Z 20005KT 16/15 A2995 RMK A01 T01630145  RH  089%=      5-min Rain = 0
KMC1 090821Z 20004KT 16/15 A2995 RMK A01 T01630145  RH  089%=      5-min Rain = 0
KMC1 090822Z 20004KT 16/14 A2995 RMK A01 T01620144  RH  089%=      5-min Rain = 0
KMC1 090823Z 20004KT 16/15 A2995 RMK A01 T01620145  RH  089%=      5-min Rain = 0
KMC1 090824Z 20004KT 16/15 A2995 RMK A01 T01620145  RH  089%=      5-min Rain = 0
KMC1 090825Z 21004KT 16/15 A2995 RMK A01 T01620145  RH  089%=      5-min Rain = 0
KMC1 090826Z 21003KT 16/15 A2995 RMK A01 T01630145  RH  089%=      5-min Rain = 0
KMC1 090827Z 21003KT 16/14 A2995 RMK A01 T01630144  RH  089%=      5-min Rain = 0
KMC1 090828Z 21003KT 16/14 A2995 RMK A01 T01620144  RH  089%=      5-min Rain = 0
KMC1 090829Z 21003KT 16/14 A2995 RMK A01 T01620144  RH  089%=      5-min Rain = 0
KMC1 090830Z 21003KT 16/15 A2995 RMK A01 T01620145  RH  090%=      5-min Rain = 0
KMC1 090831Z 21004KT 16/15 A2995 RMK A01 T01620145  RH  090%=      5-min Rain = 0
KMC1 090832Z 21004KT 16/15 A2995 RMK A01 T01620145  RH  090%=      5-min Rain = 0
KMC1 090833Z 21004KT 16/15 A2995 RMK A01 T01620145  RH  090%=      5-min Rain = 0
KMC1 090834Z 21004KT 16/15 A2995 RMK A01 T01620145  RH  089%=      5-min Rain = 0
KMC1 090835Z 22004KT 16/15 A2995 RMK A01 T01620145  RH  089%=      5-min Rain = 0
KMC1 090836Z 22004KT 16/15 A2995 RMK A01 T01620145  RH  090%=      5-min Rain = 0
KMC1 090837Z 22003KT 16/15 A2995 RMK A01 T01620145  RH  090%=      5-min Rain = 0
KMC1 090838Z 23003KT 16/15 A2995 RMK A01 T01620145  RH  090%=      5-min Rain = 0
KMC1 090839Z 23003KT 16/15 A2995 RMK A01 T01620145  RH  090%=      5-min Rain = 0
KMC1 090840Z 23003KT 16/14 A2995 RMK A01 T01610144  RH  089%=      5-min Rain = 0
KMC1 090841Z 23003KT 16/14 A2995 RMK A01 T01600143  RH  090%=      5-min Rain = 0
KMC1 090842Z 23003KT 16/14 A2995 RMK A01 T01590143  RH  090%=      5-min Rain = 0
KMC1 090843Z 23002KT 16/14 A2995 RMK A01 T01580142  RH  090%=      5-min Rain = 0
KMC1 090844Z 23003KT 16/14 A2995 RMK A01 T01580143  RH  091%=      5-min Rain = 0
KMC1 090845Z 23003KT 16/14 A2995 RMK A01 T01580143  RH  091%=      5-min Rain = 0
KMC1 090846Z 24003KT 16/14 A2995 RMK A01 T01570142  RH  091%=      5-min Rain = 0
KMC1 090847Z 25003KT 16/14 A2995 RMK A01 T01560143  RH  091%=      5-min Rain = 0
KMC1 090848Z 24002KT 16/14 A2995 RMK A01 T01560142  RH  092%=      5-min Rain = 0
KMC1 090849Z 23002KT 16/14 A2995 RMK A01 T01550142  RH  092%=      5-min Rain = 0
KMC1 090850Z 24002KT 16/14 A2994 RMK A01 T01550143  RH  092%=      5-min Rain = 0
KMC1 090851Z 23002KT 16/14 A2994 RMK A01 T01550143  RH  092%=      5-min Rain = 0
KMC1 090852Z 23002KT 16/14 A2995 RMK A01 T01550143  RH  093%=      5-min Rain = 0
KMC1 090853Z 22003KT 16/14 A2995 RMK A01 T01550143  RH  093%=      5-min Rain = 0
KMC1 090854Z 23003KT 16/14 A2995 RMK A01 T01550143  RH  093%=      5-min Rain = 0
KMC1 090855Z 23003KT 16/14 A2995 RMK A01 T01550143  RH  093%=      5-min Rain = 0
KMC1 090856Z 22003KT 15/14 A2995 RMK A01 T01540143  RH  093%=      5-min Rain = 0
KMC1 090857Z 22003KT 15/14 A2995 RMK A01 T01540143  RH  093%=      5-min Rain = 0
KMC1 090858Z 23004KT 15/14 A2994 RMK A01 T01540144  RH  093%=      5-min Rain = 0
KMC1 090859Z 23003KT 15/14 A2994 RMK A01 T01540144  RH  094%=      5-min Rain = 0
KMC1 090900Z 22004KT 15/14 A2994 RMK A01 T01540144  RH  094%=      5-min Rain = 0
KMC1 090901Z 23004KT 15/14 A2995 RMK A01 T01540144  RH  094%=      5-min Rain = 0
KMC1 090902Z 23004KT 15/14 A2995 RMK A01 T01540144  RH  094%=      5-min Rain = 0
KMC1 090903Z 23004KT 15/14 A2995 RMK A01 T01540144  RH  094%=      5-min Rain = 0
KMC1 090904Z 23003KT 15/14 A2995 RMK A01 T01540144  RH  093%=      5-min Rain = 0
KMC1 090905Z 22003KT 16/14 A2994 RMK A01 T01550144  RH  093%=      5-min Rain = 0
KMC1 090906Z 22003KT 16/14 A2994 RMK A01 T01550144  RH  093%=      5-min Rain = 0
KMC1 090907Z 21003KT 16/14 A2994 RMK A01 T01550144  RH  093%=      5-min Rain = 0
KMC1 090908Z 21004KT 16/15 A2994 RMK A01 T01560145  RH  093%=      5-min Rain = 0
KMC1 090909Z 21003KT 16/15 A2994 RMK A01 T01560145  RH  093%=      5-min Rain = 0
KMC1 090910Z 21003KT 16/15 A2994 RMK A01 T01560145  RH  093%=      5-min Rain = 0
KMC1 090911Z 21003KT 16/15 A2994 RMK A01 T01560145  RH  093%=      5-min Rain = 0
KMC1 090912Z 21003KT 16/15 A2994 RMK A01 T01570146  RH  093%=      5-min Rain = 0
KMC1 090913Z 21003KT 16/15 A2994 RMK A01 T01570146  RH  093%=      5-min Rain = 0
KMC1 090914Z 22002KT 16/15 A2994 RMK A01 T01580145  RH  092%=      5-min Rain = 0
KMC1 090915Z 21002KT 16/15 A2994 RMK A01 T01570145  RH  092%=      5-min Rain = 0
KMC1 090916Z 21003KT 16/15 A2994 RMK A01 T01580145  RH  092%=      5-min Rain = 0
KMC1 090917Z 21003KT 16/15 A2994 RMK A01 T01580145  RH  092%=      5-min Rain = 0
KMC1 090918Z 21003KT 16/15 A2994 RMK A01 T01580145  RH  092%=      5-min Rain = 0
KMC1 090919Z 21003KT 16/15 A2994 RMK A01 T01580145  RH  092%=      5-min Rain = 0
KMC1 090920Z 21003KT 16/15 A2994 RMK A01 T01580145  RH  092%=      5-min Rain = 0
KMC1 090921Z 22003KT 16/15 A2994 RMK A01 T01580145  RH  092%=      5-min Rain = 0
KMC1 090922Z 24002KT 16/14 A2994 RMK A01 T01570144  RH  092%=      5-min Rain = 0
KMC1 090923Z 23002KT 16/14 A2994 RMK A01 T01570144  RH  092%=      5-min Rain = 0
KMC1 090924Z 22003KT 16/14 A2994 RMK A01 T01560143  RH  092%=      5-min Rain = 0
KMC1 090925Z 22003KT 16/14 A2994 RMK A01 T01560144  RH  093%=      5-min Rain = 0
KMC1 090926Z 21002KT 16/14 A2994 RMK A01 T01550144  RH  093%=      5-min Rain = 0
KMC1 090927Z 21002KT 16/14 A2994 RMK A01 T01550144  RH  093%=      5-min Rain = 0
KMC1 090928Z 21001KT 16/14 A2994 RMK A01 T01550144  RH  093%=      5-min Rain = 0
KMC1 090929Z 21001KT 16/14 A2994 RMK A01 T01550144  RH  093%=      5-min Rain = 0
KMC1 090930Z 20002KT 16/15 A2994 RMK A01 T01550145  RH  094%=      5-min Rain = 0
KMC1 090931Z 21001KT 15/14 A2994 RMK A01 T01540144  RH  094%=      5-min Rain = 0
KMC1 090932Z 21002KT 15/14 A2994 RMK A01 T01540144  RH  094%=      5-min Rain = 0
KMC1 090933Z 21002KT 15/14 A2994 RMK A01 T01540144  RH  094%=      5-min Rain = 0
KMC1 090934Z 23002KT 15/14 A2994 RMK A01 T01540144  RH  094%=      5-min Rain = 0
KMC1 090935Z 25002KT 15/14 A2994 RMK A01 T01540144  RH  094%=      5-min Rain = 0
KMC1 090936Z 25002KT 16/14 A2994 RMK A01 T01550144  RH  094%=      5-min Rain = 0
KMC1 090937Z 25002KT 15/14 A2994 RMK A01 T01540144  RH  094%=      5-min Rain = 0
KMC1 090938Z 25002KT 15/14 A2994 RMK A01 T01540144  RH  094%=      5-min Rain = 0
KMC1 090939Z 24002KT 15/14 A2994 RMK A01 T01540144  RH  094%=      5-min Rain = 0
KMC1 090940Z 24002KT 15/14 A2994 RMK A01 T01540144  RH  094%=      5-min Rain = 0
KMC1 090941Z 24002KT 15/14 A2994 RMK A01 T01540144  RH  094%=      5-min Rain = 0
KMC1 090942Z 25001KT 15/14 A2993 RMK A01 T01540144  RH  094%=      5-min Rain = 0
KMC1 090943Z 26002KT 15/14 A2993 RMK A01 T01540144  RH  094%=      5-min Rain = 0
KMC1 090944Z 27002KT 15/14 A2993 RMK A01 T01540144  RH  094%=      5-min Rain = 0
KMC1 090945Z 26002KT 15/14 A2993 RMK A01 T01540144  RH  094%=      5-min Rain = 0
KMC1 090946Z 25002KT 15/14 A2993 RMK A01 T01540144  RH  094%=      5-min Rain = 0
KMC1 090947Z 25002KT 15/15 A2993 RMK A01 T01540145  RH  094%=      5-min Rain = 0
KMC1 090948Z 26002KT 16/15 A2993 RMK A01 T01550145  RH  094%=      5-min Rain = 0
KMC1 090949Z 27002KT 16/15 A2993 RMK A01 T01550145  RH  094%=      5-min Rain = 0
KMC1 090950Z 26002KT 16/15 A2993 RMK A01 T01550145  RH  094%=      5-min Rain = 0
KMC1 090951Z 26001KT 16/15 A2993 RMK A01 T01550145  RH  094%=      5-min Rain = 0
KMC1 090952Z 27001KT 16/14 A2993 RMK A01 T01550144  RH  094%=      5-min Rain = 0
KMC1 090953Z 27002KT 16/14 A2993 RMK A01 T01550144  RH  093%=      5-min Rain = 0
KMC1 090954Z 26002KT 16/14 A2993 RMK A01 T01550144  RH  094%=      5-min Rain = 0
KMC1 090955Z 25002KT 16/15 A2993 RMK A01 T01550145  RH  094%=      5-min Rain = 0
KMC1 090956Z 25002KT 16/15 A2993 RMK A01 T01550145  RH  094%=      5-min Rain = 0
KMC1 090957Z 26002KT 16/15 A2993 RMK A01 T01550145  RH  094%=      5-min Rain = 0
KMC1 090958Z 26002KT 16/15 A2993 RMK A01 T01550145  RH  094%=      5-min Rain = 0
KMC1 090959Z 27002KT 16/15 A2993 RMK A01 T01550145  RH  094%=      5-min Rain = 0
KMC1 091000Z 27002KT 16/15 A2993 RMK A01 T01550145  RH  093%=      5-min Rain = 0
KMC1 091001Z 28002KT 16/15 A2993 RMK A01 T01550145  RH  093%=      5-min Rain = 0
KMC1 091002Z 28001KT 16/15 A2993 RMK A01 T01550145  RH  094%=      5-min Rain = 0
KMC1 091003Z 28001KT 16/15 A2993 RMK A01 T01550145  RH  094%=      5-min Rain = 0
KMC1 091004Z 29001KT 16/15 A2993 RMK A01 T01550145  RH  094%=      5-min Rain = 0
KMC1 091005Z 27001KT 16/15 A2993 RMK A01 T01550145  RH  093%=      5-min Rain = 0
KMC1 091006Z 27001KT 16/15 A2993 RMK A01 T01550145  RH  093%=      5-min Rain = 0
KMC1 091007Z 27001KT 16/15 A2993 RMK A01 T01550145  RH  093%=      5-min Rain = 0
KMC1 091008Z 26001KT 16/14 A2993 RMK A01 T01550144  RH  093%=      5-min Rain = 0
KMC1 091009Z 25001KT 16/15 A2993 RMK A01 T01550145  RH  093%=      5-min Rain = 0
KMC1 091010Z 25001KT 16/14 A2993 RMK A01 T01550144  RH  093%=      5-min Rain = 0
KMC1 091011Z 25001KT 16/14 A2993 RMK A01 T01550144  RH  093%=      5-min Rain = 0
KMC1 091012Z 25001KT 16/15 A2993 RMK A01 T01560145  RH  093%=      5-min Rain = 0
KMC1 091013Z 24002KT 16/15 A2993 RMK A01 T01560145  RH  093%=      5-min Rain = 0
KMC1 091014Z 24002KT 16/15 A2993 RMK A01 T01560145  RH  093%=      5-min Rain = 0
KMC1 091015Z 24002KT 16/15 A2993 RMK A01 T01560145  RH  093%=      5-min Rain = 0
KMC1 091016Z 24002KT 16/15 A2993 RMK A01 T01560145  RH  093%=      5-min Rain = 0
KMC1 091017Z 25002KT 16/15 A2993 RMK A01 T01560145  RH  093%=      5-min Rain = 0
KMC1 091018Z 26002KT 16/15 A2993 RMK A01 T01560145  RH  093%=      5-min Rain = 0
KMC1 091019Z 26001KT 16/15 A2993 RMK A01 T01560145  RH  093%=      5-min Rain = 0
KMC1 091020Z 25002KT 16/15 A2993 RMK A01 T01560145  RH  093%=      5-min Rain = 0
KMC1 091021Z 24002KT 16/15 A2993 RMK A01 T01560145  RH  093%=      5-min Rain = 0
KMC1 091022Z 23002KT 16/15 A2993 RMK A01 T01560145  RH  093%=      5-min Rain = 0
KMC1 091023Z 24002KT 16/15 A2993 RMK A01 T01560145  RH  093%=      5-min Rain = 0
KMC1 091024Z 24002KT 16/15 A2993 RMK A01 T01560145  RH  093%=      5-min Rain = 0
KMC1 091025Z 23002KT 16/15 A2993 RMK A01 T01570145  RH  093%=      5-min Rain = 0
KMC1 091026Z 23002KT 16/15 A2993 RMK A01 T01570146  RH  093%=      5-min Rain = 0
KMC1 091027Z 24002KT 16/15 A2993 RMK A01 T01570146  RH  093%=      5-min Rain = 0
KMC1 091028Z 25002KT 16/15 A2993 RMK A01 T01570146  RH  093%=      5-min Rain = 0
KMC1 091029Z 25002KT 16/15 A2993 RMK A01 T01580146  RH  093%=      5-min Rain = 0
KMC1 091030Z 25002KT 16/15 A2993 RMK A01 T01580147  RH  093%=      5-min Rain = 0
KMC1 091031Z 25002KT 16/15 A2993 RMK A01 T01570146  RH  093%=      5-min Rain = 0
KMC1 091032Z 25002KT 16/15 A2993 RMK A01 T01580147  RH  093%=      5-min Rain = 0
KMC1 091033Z 27002KT 16/15 A2993 RMK A01 T01570147  RH  093%=      5-min Rain = 0
KMC1 091034Z 27002KT 16/15 A2993 RMK A01 T01580148  RH  094%=      5-min Rain = 0
KMC1 091035Z 27002KT 16/15 A2993 RMK A01 T01580147  RH  094%=      5-min Rain = 0
KMC1 091036Z 28002KT 16/15 A2993 RMK A01 T01580147  RH  093%=      5-min Rain = 0
KMC1 091037Z 27002KT 16/15 A2993 RMK A01 T01580147  RH  093%=      5-min Rain = 0
KMC1 091038Z 25002KT 16/15 A2993 RMK A01 T01580147  RH  093%=      5-min Rain = 0
KMC1 091039Z 25002KT 16/15 A2993 RMK A01 T01580147  RH  093%=      5-min Rain = 0
KMC1 091040Z 24002KT 16/15 A2993 RMK A01 T01580147  RH  093%=      5-min Rain = 0
KMC1 091041Z 24002KT 16/15 A2993 RMK A01 T01580147  RH  093%=      5-min Rain = 0
KMC1 091042Z 23002KT 16/15 A2993 RMK A01 T01590148  RH  093%=      5-min Rain = 0
KMC1 091043Z 23002KT 16/15 A2993 RMK A01 T01590147  RH  093%=      5-min Rain = 0
KMC1 091044Z 23002KT 16/15 A2993 RMK A01 T01590147  RH  092%=      5-min Rain = 0
KMC1 091045Z 23002KT 16/15 A2993 RMK A01 T01600147  RH  092%=      5-min Rain = 0
KMC1 091046Z 23002KT 16/15 A2993 RMK A01 T01600146  RH  092%=      5-min Rain = 0
KMC1 091047Z 23002KT 16/15 A2993 RMK A01 T01600146  RH  092%=      5-min Rain = 0
KMC1 091048Z 23002KT 16/15 A2993 RMK A01 T01600146  RH  092%=      5-min Rain = 0
KMC1 091049Z 22002KT 16/15 A2993 RMK A01 T01600146  RH  092%=      5-min Rain = 0
KMC1 091050Z 22002KT 16/15 A2993 RMK A01 T01600146  RH  091%=      5-min Rain = 0
KMC1 091051Z 22002KT 16/15 A2993 RMK A01 T01600146  RH  092%=      5-min Rain = 0
KMC1 091052Z 22002KT 16/15 A2993 RMK A01 T01600147  RH  092%=      5-min Rain = 0
KMC1 091053Z 23002KT 16/15 A2993 RMK A01 T01600146  RH  091%=      5-min Rain = 0
KMC1 091054Z 26002KT 16/15 A2993 RMK A01 T01610146  RH  091%=      5-min Rain = 0
KMC1 091055Z 26002KT 16/15 A2993 RMK A01 T01610146  RH  091%=      5-min Rain = 0
KMC1 091056Z 26002KT 16/15 A2993 RMK A01 T01610147  RH  092%=      5-min Rain = 0
KMC1 091057Z 26002KT 16/15 A2994 RMK A01 T01610148  RH  092%=      5-min Rain = 0
KMC1 091058Z 26001KT 16/15 A2994 RMK A01 T01610147  RH  091%=      5-min Rain = 0
KMC1 091059Z 24001KT 16/15 A2994 RMK A01 T01610148  RH  092%=      5-min Rain = 0
KMC1 091100Z 23002KT 16/15 A2994 RMK A01 T01610147  RH  091%=      5-min Rain = 0
KMC1 091101Z 22002KT 16/15 A2994 RMK A01 T01610147  RH  092%=      5-min Rain = 0
KMC1 091102Z 21002KT 16/15 A2993 RMK A01 T01610147  RH  092%=      5-min Rain = 0
KMC1 091103Z 21002KT 16/15 A2993 RMK A01 T01610147  RH  091%=      5-min Rain = 0
KMC1 091104Z 21002KT 16/15 A2993 RMK A01 T01610147  RH  092%=      5-min Rain = 0
KMC1 091105Z 20002KT 16/15 A2993 RMK A01 T01610147  RH  091%=      5-min Rain = 0
KMC1 091106Z 20002KT 16/15 A2993 RMK A01 T01610147  RH  092%=      5-min Rain = 0
KMC1 091107Z 20002KT 16/15 A2993 RMK A01 T01610147  RH  092%=      5-min Rain = 0
KMC1 091108Z 19001KT 16/15 A2993 RMK A01 T01610148  RH  092%=      5-min Rain = 0
KMC1 091109Z 20001KT 16/15 A2993 RMK A01 T01610148  RH  092%=      5-min Rain = 0
KMC1 091110Z 20001KT 16/15 A2993 RMK A01 T01610149  RH  092%=      5-min Rain = 0
KMC1 091111Z 20001KT 16/15 A2993 RMK A01 T01610149  RH  093%=      5-min Rain = 0
KMC1 091112Z 20002KT 16/15 A2993 RMK A01 T01610149  RH  093%=      5-min Rain = 0
KMC1 091113Z 19002KT 16/15 A2993 RMK A01 T01610149  RH  093%=      5-min Rain = 0
KMC1 091114Z 20002KT 16/15 A2993 RMK A01 T01610149  RH  093%=      5-min Rain = 0
KMC1 091115Z 20002KT 16/15 A2993 RMK A01 T01610149  RH  093%=      5-min Rain = 0
KMC1 091116Z 20001KT 16/15 A2993 RMK A01 T01610149  RH  093%=      5-min Rain = 0
KMC1 091117Z 21002KT 16/15 A2993 RMK A01 T01610149  RH  093%=      5-min Rain = 0
KMC1 091118Z 21002KT 16/15 A2993 RMK A01 T01610150  RH  093%=      5-min Rain = 0
KMC1 091119Z 22001KT 16/15 A2993 RMK A01 T01610150  RH  093%=      5-min Rain = 0
KMC1 091120Z 22001KT 16/15 A2993 RMK A01 T01610149  RH  093%=      5-min Rain = 0
KMC1 091121Z 22002KT 16/15 A2993 RMK A01 T01620150  RH  092%=      5-min Rain = 0
KMC1 091122Z 22002KT 16/15 A2993 RMK A01 T01620150  RH  092%=      5-min Rain = 0
KMC1 091123Z 22002KT 16/15 A2993 RMK A01 T01620149  RH  092%=      5-min Rain = 0
KMC1 091124Z 22002KT 16/15 A2993 RMK A01 T01620150  RH  092%=      5-min Rain = 0
KMC1 091125Z 22002KT 16/15 A2993 RMK A01 T01620150  RH  092%=      5-min Rain = 0
KMC1 091126Z 21002KT 16/15 A2993 RMK A01 T01620149  RH  092%=      5-min Rain = 0
KMC1 091127Z 21002KT 16/15 A2993 RMK A01 T01620149  RH  092%=      5-min Rain = 0
KMC1 091128Z 20002KT 16/15 A2993 RMK A01 T01620149  RH  092%=      5-min Rain = 0
KMC1 091129Z 19002KT 16/15 A2993 RMK A01 T01620148  RH  092%=      5-min Rain = 0
KMC1 091130Z 18002KT 16/15 A2993 RMK A01 T01620149  RH  092%=      5-min Rain = 0
KMC1 091131Z 18002KT 16/15 A2993 RMK A01 T01620149  RH  092%=      5-min Rain = 0
KMC1 091132Z 18002KT 16/15 A2993 RMK A01 T01620149  RH  092%=      5-min Rain = 0
KMC1 091133Z 18003KT 16/15 A2993 RMK A01 T01630149  RH  092%=      5-min Rain = 0
KMC1 091134Z 18003KT 16/15 A2993 RMK A01 T01630149  RH  092%=      5-min Rain = 0
KMC1 091135Z 18003KT 16/15 A2993 RMK A01 T01630150  RH  092%=      5-min Rain = 0
KMC1 091136Z 17003KT 16/15 A2993 RMK A01 T01630150  RH  091%=      5-min Rain = 0
KMC1 091137Z 17003KT 16/15 A2993 RMK A01 T01640150  RH  091%=      5-min Rain = 0
KMC1 091138Z 17003KT 16/15 A2993 RMK A01 T01640150  RH  091%=      5-min Rain = 0
KMC1 091139Z 17002KT 16/15 A2993 RMK A01 T01640151  RH  092%=      5-min Rain = 0
KMC1 091140Z 17002KT 16/15 A2993 RMK A01 T01640151  RH  092%=      5-min Rain = 0
KMC1 091141Z 18002KT 17/15 A2993 RMK A01 T01650151  RH  092%=      5-min Rain = 0
KMC1 091142Z 20001KT 17/15 A2993 RMK A01 T01650151  RH  091%=      5-min Rain = 0
KMC1 091143Z 21001KT 17/15 A2993 RMK A01 T01650150  RH  091%=      5-min Rain = 0
KMC1 091144Z 21001KT 17/15 A2993 RMK A01 T01650151  RH  091%=      5-min Rain = 0
KMC1 091145Z 22001KT 17/15 A2993 RMK A01 T01650152  RH  092%=      5-min Rain = 0
KMC1 091146Z 22001KT 17/15 A2993 RMK A01 T01650152  RH  092%=      5-min Rain = 0
KMC1 091147Z 22001KT 16/15 A2993 RMK A01 T01640151  RH  092%=      5-min Rain = 0
KMC1 091148Z 22001KT 16/15 A2993 RMK A01 T01640152  RH  092%=      5-min Rain = 0
KMC1 091149Z 22001KT 16/15 A2993 RMK A01 T01640152  RH  092%=      5-min Rain = 0
KMC1 091150Z 22001KT 16/15 A2993 RMK A01 T01640152  RH  092%=      5-min Rain = 0
KMC1 091151Z 21001KT 16/15 A2993 RMK A01 T01640152  RH  092%=      5-min Rain = 0
KMC1 091152Z 23001KT 16/15 A2993 RMK A01 T01640151  RH  092%=      5-min Rain = 0
KMC1 091153Z 25001KT 16/15 A2994 RMK A01 T01630151  RH  092%=      5-min Rain = 0
KMC1 091154Z 25001KT 16/15 A2994 RMK A01 T01630151  RH  092%=      5-min Rain = 0
KMC1 091155Z 23001KT 16/15 A2994 RMK A01 T01630151  RH  092%=      5-min Rain = 0
KMC1 091156Z 22001KT 16/15 A2994 RMK A01 T01630151  RH  092%=      5-min Rain = 0
KMC1 091157Z 22001KT 16/15 A2994 RMK A01 T01630151  RH  092%=      5-min Rain = 0
KMC1 091158Z 22001KT 16/15 A2994 RMK A01 T01630151  RH  092%=      5-min Rain = 0
KMC1 091159Z 22001KT 16/15 A2994 RMK A01 T01620150  RH  092%=      5-min Rain = 0
KMC1 091200Z 22001KT 16/15 A2994 RMK A01 T01620150  RH  093%=      5-min Rain = 0
KMC1 091201Z 22001KT 16/15 A2994 RMK A01 T01620151  RH  093%=      5-min Rain = 0
KMC1 091202Z 21002KT 16/15 A2994 RMK A01 T01620151  RH  093%=      5-min Rain = 0
KMC1 091203Z 20002KT 16/15 A2994 RMK A01 T01620151  RH  093%=      5-min Rain = 0
KMC1 091204Z 20002KT 16/15 A2994 RMK A01 T01630151  RH  093%=      5-min Rain = 0
KMC1 091205Z 20002KT 16/15 A2994 RMK A01 T01620151  RH  093%=      5-min Rain = 0
KMC1 091206Z 20003KT 16/15 A2994 RMK A01 T01620151  RH  093%=      5-min Rain = 0
KMC1 091207Z 20002KT 16/15 A2994 RMK A01 T01620151  RH  093%=      5-min Rain = 0
KMC1 091208Z 20002KT 16/15 A2993 RMK A01 T01620151  RH  093%=      5-min Rain = 0
KMC1 091209Z 21002KT 16/15 A2993 RMK A01 T01620152  RH  093%=      5-min Rain = 0
KMC1 091210Z 21003KT 16/15 A2993 RMK A01 T01620151  RH  093%=      5-min Rain = 0
KMC1 091211Z 22003KT 16/15 A2993 RMK A01 T01620151  RH  093%=      5-min Rain = 0
KMC1 091212Z 22003KT 16/15 A2993 RMK A01 T01630151  RH  093%=      5-min Rain = 0
KMC1 091213Z 22003KT 16/15 A2994 RMK A01 T01630151  RH  093%=      5-min Rain = 0
KMC1 091214Z 23003KT 16/15 A2994 RMK A01 T01630152  RH  093%=      5-min Rain = 0
KMC1 091215Z 23003KT 16/15 A2994 RMK A01 T01640152  RH  093%=      5-min Rain = 0
KMC1 091216Z 24003KT 16/15 A2994 RMK A01 T01640152  RH  093%=      5-min Rain = 0
KMC1 091217Z 23003KT 16/15 A2994 RMK A01 T01640152  RH  093%=      5-min Rain = 0
KMC1 091218Z 23003KT 16/15 A2994 RMK A01 T01640152  RH  093%=      5-min Rain = 0
KMC1 091219Z 23003KT 16/15 A2993 RMK A01 T01640153  RH  093%=      5-min Rain = 0
KMC1 091220Z 22003KT 17/15 A2993 RMK A01 T01650153  RH  093%=      5-min Rain = 0
KMC1 091221Z 23003KT 17/15 A2993 RMK A01 T01650153  RH  093%=      5-min Rain = 0
KMC1 091222Z 24003KT 17/15 A2993 RMK A01 T01650154  RH  093%=      5-min Rain = 0
KMC1 091223Z 24003KT 17/15 A2994 RMK A01 T01660154  RH  093%=      5-min Rain = 0
KMC1 091224Z 24003KT 17/15 A2994 RMK A01 T01660154  RH  093%=      5-min Rain = 0
KMC1 091225Z 24003KT 17/15 A2994 RMK A01 T01660154  RH  093%=      5-min Rain = 0
KMC1 091226Z 24003KT 17/16 A2994 RMK A01 T01670155  RH  093%=      5-min Rain = 0
KMC1 091227Z 24002KT 17/16 A2994 RMK A01 T01670155  RH  092%=      5-min Rain = 0
KMC1 091228Z 24002KT 17/16 A2994 RMK A01 T01670155  RH  092%=      5-min Rain = 0
KMC1 091229Z 23002KT 17/16 A2994 RMK A01 T01670155  RH  092%=      5-min Rain = 0
KMC1 091230Z 23002KT 17/16 A2994 RMK A01 T01680155  RH  092%=      5-min Rain = 0
KMC1 091231Z 23002KT 17/16 A2994 RMK A01 T01680155  RH  092%=      5-min Rain = 0
KMC1 091232Z 23002KT 17/16 A2994 RMK A01 T01680155  RH  092%=      5-min Rain = 0
KMC1 091233Z 23002KT 17/16 A2994 RMK A01 T01670155  RH  092%=      5-min Rain = 0
KMC1 091234Z 22002KT 17/16 A2994 RMK A01 T01670155  RH  092%=      5-min Rain = 0
KMC1 091235Z 21002KT 17/16 A2994 RMK A01 T01680155  RH  092%=      5-min Rain = 0
KMC1 091236Z 21002KT 17/15 A2994 RMK A01 T01670154  RH  092%=      5-min Rain = 0
KMC1 091237Z 20002KT 17/15 A2994 RMK A01 T01680154  RH  092%=      5-min Rain = 0
KMC1 091238Z 19002KT 17/16 A2994 RMK A01 T01680155  RH  092%=      5-min Rain = 0
KMC1 091239Z 19003KT 17/16 A2995 RMK A01 T01680156  RH  093%=      5-min Rain = 0
KMC1 091240Z 19003KT 17/16 A2995 RMK A01 T01680157  RH  093%=      5-min Rain = 0
KMC1 091241Z 19003KT 17/16 A2995 RMK A01 T01680157  RH  093%=      5-min Rain = 0
KMC1 091242Z 19003KT 17/16 A2995 RMK A01 T01690157  RH  093%=      5-min Rain = 0
KMC1 091243Z 19003KT 17/16 A2995 RMK A01 T01690158  RH  093%=      5-min Rain = 0
KMC1 091244Z 20003KT 17/16 A2995 RMK A01 T01690158  RH  093%=      5-min Rain = 0
KMC1 091245Z 20003KT 17/16 A2995 RMK A01 T01690158  RH  093%=      5-min Rain = 0
KMC1 091246Z 20003KT 17/16 A2995 RMK A01 T01700159  RH  093%=      5-min Rain = 0
KMC1 091247Z 20003KT 17/16 A2995 RMK A01 T01700159  RH  094%=      5-min Rain = 0
KMC1 091248Z 20003KT 17/16 A2995 RMK A01 T01700160  RH  093%=      5-min Rain = 0
KMC1 091249Z 20003KT 17/16 A2995 RMK A01 T01710160  RH  093%=      5-min Rain = 0
KMC1 091250Z 20003KT 17/16 A2995 RMK A01 T01710160  RH  093%=      5-min Rain = 0
KMC1 091251Z 18003KT 17/16 A2995 RMK A01 T01720161  RH  093%=      5-min Rain = 0
KMC1 091252Z 18003KT 17/16 A2995 RMK A01 T01720162  RH  093%=      5-min Rain = 0
KMC1 091253Z 17002KT 17/16 A2995 RMK A01 T01730162  RH  093%=      5-min Rain = 0
KMC1 091254Z 17002KT 17/16 A2995 RMK A01 T01730161  RH  093%=      5-min Rain = 0
KMC1 091255Z 17002KT 17/16 A2995 RMK A01 T01730161  RH  093%=      5-min Rain = 0
KMC1 091256Z 18002KT 17/16 A2995 RMK A01 T01730161  RH  093%=      5-min Rain = 0
KMC1 091257Z 19002KT 17/16 A2995 RMK A01 T01730162  RH  093%=      5-min Rain = 0
KMC1 091258Z 20001KT 17/16 A2995 RMK A01 T01730162  RH  093%=      5-min Rain = 0
KMC1 091259Z 20001KT 17/16 A2995 RMK A01 T01730161  RH  093%=      5-min Rain = 0
KMC1 091300Z 20002KT 17/16 A2995 RMK A01 T01730162  RH  093%=      5-min Rain = 0
KMC1 091301Z 20002KT 17/16 A2995 RMK A01 T01730162  RH  093%=      5-min Rain = 0
KMC1 091302Z 18002KT 17/16 A2995 RMK A01 T01730163  RH  094%=      5-min Rain = 0
KMC1 091303Z 16002KT 17/16 A2995 RMK A01 T01730163  RH  094%=      5-min Rain = 0
KMC1 091304Z 15002KT 17/16 A2995 RMK A01 T01720161  RH  093%=      5-min Rain = 0
KMC1 091305Z 14001KT 17/16 A2995 RMK A01 T01720160  RH  093%=      5-min Rain = 0
KMC1 091306Z 17001KT 17/16 A2995 RMK A01 T01710159  RH  093%=      5-min Rain = 0
KMC1 091307Z 18001KT 17/16 A2995 RMK A01 T01710160  RH  093%=      5-min Rain = 0
KMC1 091308Z 18000KT 17/16 A2995 RMK A01 T01710159  RH  093%=      5-min Rain = 0
KMC1 091309Z 00000KT 17/16 A2995 RMK A01 T01700160  RH  093%=      5-min Rain = 0
KMC1 091310Z 00000KT 17/16 A2995 RMK A01 T01700160  RH  094%=      5-min Rain = 0
KMC1 091311Z 00000KT 17/16 A2995 RMK A01 T01700160  RH  094%=      5-min Rain = 0
KMC1 091312Z 00000KT 17/16 A2995 RMK A01 T01700161  RH  094%=      5-min Rain = 0
KMC1 091313Z 00000KT 17/16 A2995 RMK A01 T01700161  RH  094%=      5-min Rain = 0
KMC1 091314Z 00000KT 17/16 A2995 RMK A01 T01700160  RH  094%=      5-min Rain = 0
KMC1 091315Z 00000KT 17/16 A2995 RMK A01 T01700160  RH  093%=      5-min Rain = 0
KMC1 091316Z 00000KT 17/16 A2996 RMK A01 T01700160  RH  093%=      5-min Rain = 0
KMC1 091317Z 00000KT 17/16 A2996 RMK A01 T01700160  RH  094%=      5-min Rain = 0
KMC1 091318Z 00000KT 17/16 A2996 RMK A01 T01710160  RH  094%=      5-min Rain = 0
KMC1 091319Z 00000KT 17/16 A2996 RMK A01 T01710159  RH  093%=      5-min Rain = 0
KMC1 091320Z 00000KT 17/16 A2996 RMK A01 T01710159  RH  093%=      5-min Rain = 0
KMC1 091321Z 00000KT 17/16 A2996 RMK A01 T01710160  RH  093%=      5-min Rain = 0
KMC1 091322Z 00000KT 17/16 A2996 RMK A01 T01710159  RH  093%=      5-min Rain = 0
KMC1 091323Z 00000KT 17/16 A2996 RMK A01 T01710159  RH  093%=      5-min Rain = 0
KMC1 091324Z 00000KT 17/16 A2996 RMK A01 T01710159  RH  092%=      5-min Rain = 0
KMC1 091325Z 00000KT 17/16 A2996 RMK A01 T01720160  RH  093%=      5-min Rain = 0
KMC1 091326Z 00000KT 17/16 A2996 RMK A01 T01720161  RH  093%=      5-min Rain = 0
KMC1 091327Z 18000KT 17/16 A2996 RMK A01 T01720162  RH  093%=      5-min Rain = 0
KMC1 091328Z 20000KT 17/16 A2996 RMK A01 T01730162  RH  093%=      5-min Rain = 0
KMC1 091329Z 20001KT 17/16 A2996 RMK A01 T01730162  RH  093%=      5-min Rain = 0
KMC1 091330Z 19001KT 17/16 A2996 RMK A01 T01730162  RH  093%=      5-min Rain = 0
KMC1 091331Z 19002KT 17/16 A2996 RMK A01 T01730163  RH  093%=      5-min Rain = 0
KMC1 091332Z 19002KT 17/16 A2996 RMK A01 T01740164  RH  094%=      5-min Rain = 0
KMC1 091333Z 20002KT 17/16 A2996 RMK A01 T01740164  RH  094%=      5-min Rain = 0
KMC1 091334Z 20001KT 18/17 A2996 RMK A01 T01750165  RH  094%=      5-min Rain = 0
KMC1 091335Z 20001KT 18/17 A2996 RMK A01 T01750166  RH  094%=      5-min Rain = 0
KMC1 091336Z 20001KT 18/17 A2997 RMK A01 T01750166  RH  094%=      5-min Rain = 0
KMC1 091337Z 20000KT 18/17 A2997 RMK A01 T01760167  RH  094%=      5-min Rain = 0
KMC1 091338Z 00000KT 18/17 A2997 RMK A01 T01760166  RH  094%=      5-min Rain = 0
KMC1 091339Z 00000KT 18/17 A2997 RMK A01 T01770167  RH  094%=      5-min Rain = 0
KMC1 091340Z 00000KT 18/17 A2997 RMK A01 T01770167  RH  094%=      5-min Rain = 0
KMC1 091341Z 00000KT 18/17 A2997 RMK A01 T01770167  RH  093%=      5-min Rain = 0
KMC1 091342Z 00000KT 18/17 A2997 RMK A01 T01780168  RH  094%=      5-min Rain = 0
KMC1 091343Z 00000KT 18/17 A2997 RMK A01 T01780169  RH  094%=      5-min Rain = 0
KMC1 091344Z 00000KT 18/17 A2997 RMK A01 T01790169  RH  094%=      5-min Rain = 0
KMC1 091345Z 00000KT 18/17 A2997 RMK A01 T01790168  RH  093%=      5-min Rain = 0
KMC1 091346Z 00000KT 18/17 A2997 RMK A01 T01800169  RH  093%=      5-min Rain = 0
KMC1 091347Z 00000KT 18/17 A2997 RMK A01 T01800170  RH  094%=      5-min Rain = 0
KMC1 091348Z 00000KT 18/17 A2997 RMK A01 T01810171  RH  094%=      5-min Rain = 0
KMC1 091349Z 00000KT 18/17 A2997 RMK A01 T01810172  RH  094%=      5-min Rain = 0
KMC1 091350Z 00000KT 18/17 A2997 RMK A01 T01820172  RH  094%=      5-min Rain = 0
KMC1 091351Z 00000KT 18/17 A2997 RMK A01 T01820172  RH  094%=      5-min Rain = 0
KMC1 091352Z 00000KT 18/17 A2997 RMK A01 T01820172  RH  094%=      5-min Rain = 0
KMC1 091353Z 00000KT 18/17 A2997 RMK A01 T01830173  RH  094%=      5-min Rain = 0
KMC1 091354Z 00000KT 18/17 A2997 RMK A01 T01830173  RH  094%=      5-min Rain = 0
KMC1 091355Z 00000KT 18/17 A2997 RMK A01 T01840173  RH  093%=      5-min Rain = 0
KMC1 091356Z 14001KT 18/18 A2997 RMK A01 T01840175  RH  094%=      5-min Rain = 0
KMC1 091357Z 12001KT 19/17 A2997 RMK A01 T01850174  RH  093%=      5-min Rain = 0
KMC1 091358Z 12002KT 19/17 A2997 RMK A01 T01860174  RH  093%=      5-min Rain = 0
KMC1 091359Z 11002KT 19/17 A2996 RMK A01 T01860174  RH  093%=      5-min Rain = 0
KMC1 091400Z 11002KT 19/17 A2996 RMK A01 T01860172  RH  092%=      5-min Rain = 0
KMC1 091401Z 10002KT 19/17 A2996 RMK A01 T01860173  RH  092%=      5-min Rain = 0
KMC1 091402Z 11002KT 19/17 A2996 RMK A01 T01870173  RH  092%=      5-min Rain = 0
KMC1 091403Z 10002KT 19/17 A2996 RMK A01 T01870174  RH  092%=      5-min Rain = 0
KMC1 091404Z 11002KT 19/17 A2996 RMK A01 T01880174  RH  092%=      5-min Rain = 0
KMC1 091405Z 10002KT 19/17 A2996 RMK A01 T01880173  RH  091%=      5-min Rain = 0
KMC1 091406Z 11002KT 19/17 A2996 RMK A01 T01880172  RH  090%=      5-min Rain = 0
KMC1 091407Z 12003KT 19/17 A2996 RMK A01 T01880170  RH  089%=      5-min Rain = 0
KMC1 091408Z 11002KT 19/17 A2997 RMK A01 T01880171  RH  090%=      5-min Rain = 0
KMC1 091409Z 09001KT 19/17 A2997 RMK A01 T01880171  RH  090%=      5-min Rain = 0
KMC1 091410Z 09001KT 19/17 A2997 RMK A01 T01880172  RH  090%=      5-min Rain = 0
KMC1 091411Z 09001KT 19/17 A2997 RMK A01 T01890173  RH  091%=      5-min Rain = 0
KMC1 091412Z 10000KT 19/18 A2997 RMK A01 T01900175  RH  091%=      5-min Rain = 0
KMC1 091413Z 00000KT 19/18 A2997 RMK A01 T01900176  RH  092%=      5-min Rain = 0
KMC1 091414Z 01000KT 19/18 A2997 RMK A01 T01910177  RH  091%=      5-min Rain = 0
KMC1 091415Z 01001KT 19/18 A2997 RMK A01 T01910176  RH  091%=      5-min Rain = 0
KMC1 091416Z 01001KT 19/18 A2997 RMK A01 T01920178  RH  091%=      5-min Rain = 0
KMC1 091417Z 00001KT 19/18 A2997 RMK A01 T01930180  RH  092%=      5-min Rain = 0
KMC1 091418Z 35001KT 19/18 A2997 RMK A01 T01940179  RH  091%=      5-min Rain = 0
KMC1 091419Z 34001KT 19/18 A2997 RMK A01 T01940177  RH  090%=      5-min Rain = 0
KMC1 091420Z 34002KT 19/18 A2997 RMK A01 T01940176  RH  089%=      5-min Rain = 0
KMC1 091421Z 33002KT 19/17 A2997 RMK A01 T01940174  RH  088%=      5-min Rain = 0
KMC1 091422Z 34001KT 19/17 A2997 RMK A01 T01930174  RH  089%=      5-min Rain = 0
KMC1 091423Z 34001KT 19/17 A2997 RMK A01 T01930174  RH  089%=      5-min Rain = 0
KMC1 091424Z 32000KT 19/18 A2997 RMK A01 T01930175  RH  089%=      5-min Rain = 0
KMC1 091425Z 00000KT 19/17 A2997 RMK A01 T01930174  RH  089%=      5-min Rain = 0
KMC1 091426Z 33001KT 19/18 A2997 RMK A01 T01940175  RH  089%=      5-min Rain = 0
KMC1 091427Z 31001KT 19/17 A2998 RMK A01 T01940174  RH  088%=      5-min Rain = 0
KMC1 091428Z 28000KT 19/18 A2998 RMK A01 T01940175  RH  089%=      5-min Rain = 0
KMC1 091429Z 29001KT 20/18 A2998 RMK A01 T01950178  RH  090%=      5-min Rain = 0
KMC1 091430Z 29001KT 20/18 A2998 RMK A01 T01950178  RH  090%=      5-min Rain = 0
KMC1 091431Z 29001KT 20/18 A2998 RMK A01 T01950175  RH  088%=      5-min Rain = 0
KMC1 091432Z 28001KT 20/17 A2998 RMK A01 T01960174  RH  087%=      5-min Rain = 0
KMC1 091433Z 28002KT 20/17 A2998 RMK A01 T01960174  RH  088%=      5-min Rain = 0
KMC1 091434Z 29001KT 20/17 A2998 RMK A01 T01950173  RH  087%=      5-min Rain = 0
KMC1 091435Z 29001KT 20/17 A2998 RMK A01 T01960174  RH  087%=      5-min Rain = 0
KMC1 091436Z 28002KT 20/17 A2998 RMK A01 T01960172  RH  086%=      5-min Rain = 0
KMC1 091437Z 28002KT 20/17 A2998 RMK A01 T01960173  RH  087%=      5-min Rain = 0
KMC1 091438Z 28002KT 20/17 A2998 RMK A01 T01960172  RH  086%=      5-min Rain = 0
KMC1 091439Z 29002KT 20/17 A2998 RMK A01 T01960171  RH  085%=      5-min Rain = 0
KMC1 091440Z 27001KT 20/17 A2998 RMK A01 T01970172  RH  085%=      5-min Rain = 0
KMC1 091441Z 28002KT 20/17 A2998 RMK A01 T01970172  RH  085%=      5-min Rain = 0
KMC1 091442Z 27002KT 20/17 A2998 RMK A01 T01980173  RH  086%=      5-min Rain = 0
KMC1 091443Z 27002KT 20/17 A2998 RMK A01 T01980172  RH  085%=      5-min Rain = 0
KMC1 091444Z 26001KT 20/17 A2998 RMK A01 T01990173  RH  085%=      5-min Rain = 0
KMC1 091445Z 26001KT 20/18 A2998 RMK A01 T02000176  RH  086%=      5-min Rain = 0
KMC1 091446Z 28002KT 20/18 A2998 RMK A01 T02010175  RH  085%=      5-min Rain = 0
KMC1 091447Z 26002KT 20/17 A2998 RMK A01 T02010171  RH  083%=      5-min Rain = 0
KMC1 091448Z 28002KT 20/17 A2998 RMK A01 T02020172  RH  083%=      5-min Rain = 0
KMC1 091449Z 28002KT 20/17 A2998 RMK A01 T02020173  RH  083%=      5-min Rain = 0
KMC1 091450Z 28002KT 20/18 A2998 RMK A01 T02030175  RH  084%=      5-min Rain = 0
KMC1 091451Z 28003KT 20/17 A2998 RMK A01 T02040173  RH  082%=      5-min Rain = 0
KMC1 091452Z 27002KT 21/17 A2998 RMK A01 T02050174  RH  083%=      5-min Rain = 0
KMC1 091453Z 26002KT 21/17 A2998 RMK A01 T02050174  RH  082%=      5-min Rain = 0
KMC1 091454Z 25001KT 21/17 A2998 RMK A01 T02060174  RH  082%=      5-min Rain = 0
KMC1 091455Z 26001KT 21/17 A2998 RMK A01 T02070173  RH  081%=      5-min Rain = 0
KMC1 091456Z 26001KT 21/17 A2998 RMK A01 T02070174  RH  082%=      5-min Rain = 0
KMC1 091457Z 25001KT 21/18 A2998 RMK A01 T02080175  RH  081%=      5-min Rain = 0
KMC1 091458Z 23001KT 21/18 A2998 RMK A01 T02080176  RH  082%=      5-min Rain = 0
KMC1 091459Z 24001KT 21/18 A2998 RMK A01 T02090179  RH  083%=      5-min Rain = 0
KMC1 091500Z 21001KT 21/18 A2998 RMK A01 T02110178  RH  082%=      5-min Rain = 0
KMC1 091501Z 21001KT 21/18 A2998 RMK A01 T02120180  RH  082%=      5-min Rain = 0
KMC1 091502Z 24001KT 21/18 A2998 RMK A01 T02130181  RH  082%=      5-min Rain = 0
KMC1 091503Z 24001KT 21/18 A2998 RMK A01 T02140181  RH  081%=      5-min Rain = 0
KMC1 091504Z 23002KT 22/18 A2998 RMK A01 T02150180  RH  080%=      5-min Rain = 0
KMC1 091505Z 24001KT 22/18 A2998 RMK A01 T02160180  RH  080%=      5-min Rain = 0
KMC1 091506Z 25001KT 22/18 A2998 RMK A01 T02170180  RH  079%=      5-min Rain = 0
KMC1 091507Z 24001KT 22/18 A2998 RMK A01 T02180179  RH  079%=      5-min Rain = 0
KMC1 091508Z 23001KT 22/18 A2998 RMK A01 T02180180  RH  079%=      5-min Rain = 0
KMC1 091509Z 21002KT 22/18 A2998 RMK A01 T02190182  RH  079%=      5-min Rain = 0
KMC1 091510Z 22001KT 22/18 A2998 RMK A01 T02190181  RH  079%=      5-min Rain = 0
KMC1 091511Z 23001KT 22/18 A2998 RMK A01 T02200184  RH  080%=      5-min Rain = 0
KMC1 091512Z 24001KT 22/19 A2998 RMK A01 T02210185  RH  080%=      5-min Rain = 0
KMC1 091513Z 26002KT 22/19 A2998 RMK A01 T02220186  RH  080%=      5-min Rain = 0
KMC1 091514Z 24002KT 22/19 A2998 RMK A01 T02230186  RH  080%=      5-min Rain = 0
KMC1 091515Z 22001KT 22/19 A2998 RMK A01 T02230185  RH  079%=      5-min Rain = 0
KMC1 091516Z 17001KT 22/19 A2998 RMK A01 T02240186  RH  079%=      5-min Rain = 0
KMC1 091517Z 19001KT 22/19 A2998 RMK A01 T02240186  RH  079%=      5-min Rain = 0
KMC1 091518Z 19001KT 23/19 A2998 RMK A01 T02250188  RH  080%=      5-min Rain = 0
KMC1 091519Z 21001KT 23/19 A2998 RMK A01 T02250191  RH  081%=      5-min Rain = 0
KMC1 091520Z 21002KT 23/19 A2998 RMK A01 T02260190  RH  080%=      5-min Rain = 0
KMC1 091521Z 21002KT 23/19 A2998 RMK A01 T02260190  RH  080%=      5-min Rain = 0
KMC1 091522Z 21002KT 23/19 A2998 RMK A01 T02270189  RH  079%=      5-min Rain = 0
KMC1 091523Z 21002KT 23/19 A2998 RMK A01 T02270189  RH  079%=      5-min Rain = 0
KMC1 091524Z 20002KT 23/19 A2998 RMK A01 T02270191  RH  080%=      5-min Rain = 0
KMC1 091525Z 22002KT 23/19 A2998 RMK A01 T02270191  RH  080%=      5-min Rain = 0
KMC1 091526Z 20001KT 23/19 A2998 RMK A01 T02270191  RH  080%=      5-min Rain = 0
KMC1 091527Z 22001KT 23/19 A2998 RMK A01 T02270190  RH  080%=      5-min Rain = 0
KMC1 091528Z 20000KT 23/19 A2998 RMK A01 T02270191  RH  080%=      5-min Rain = 0
KMC1 091529Z 18002KT 23/19 A2998 RMK A01 T02270192  RH  080%=      5-min Rain = 0
KMC1 091530Z 21002KT 23/19 A2998 RMK A01 T02280193  RH  081%=      5-min Rain = 0
KMC1 091531Z 22002KT 23/20 A2998 RMK A01 T02290196  RH  082%=      5-min Rain = 0
KMC1 091532Z 22002KT 23/20 A2998 RMK A01 T02300196  RH  081%=      5-min Rain = 0
KMC1 091533Z 21003KT 23/20 A2998 RMK A01 T02300196  RH  081%=      5-min Rain = 0
KMC1 091534Z 23003KT 23/20 A2998 RMK A01 T02310197  RH  081%=      5-min Rain = 0
KMC1 091535Z 23002KT 23/20 A2998 RMK A01 T02320198  RH  081%=      5-min Rain = 0
KMC1 091536Z 22002KT 23/20 A2998 RMK A01 T02330197  RH  080%=      5-min Rain = 0
KMC1 091537Z 21003KT 23/20 A2998 RMK A01 T02340198  RH  080%=      5-min Rain = 0
KMC1 091538Z 21003KT 24/20 A2998 RMK A01 T02350198  RH  080%=      5-min Rain = 0
KMC1 091539Z 18002KT 24/20 A2998 RMK A01 T02350198  RH  080%=      5-min Rain = 0
KMC1 091540Z 17003KT 24/20 A2998 RMK A01 T02360199  RH  080%=      5-min Rain = 0
KMC1 091541Z 15002KT 24/20 A2997 RMK A01 T02360200  RH  080%=      5-min Rain = 0
KMC1 091542Z 17002KT 24/20 A2997 RMK A01 T02370202  RH  080%=      5-min Rain = 0
KMC1 091543Z 22003KT 24/20 A2998 RMK A01 T02380202  RH  080%=      5-min Rain = 0
KMC1 091544Z 23004KT 24/20 A2998 RMK A01 T02380201  RH  080%=      5-min Rain = 0
KMC1 091545Z 20002KT 24/20 A2998 RMK A01 T02390200  RH  079%=      5-min Rain = 0
KMC1 091546Z 21002KT 24/20 A2997 RMK A01 T02390202  RH  080%=      5-min Rain = 0
KMC1 091547Z 19001KT 24/21 A2997 RMK A01 T02400205  RH  080%=      5-min Rain = 0
KMC1 091548Z 18003KT 24/20 A2997 RMK A01 T02410203  RH  079%=      5-min Rain = 0
KMC1 091549Z 18003KT 24/20 A2997 RMK A01 T02420202  RH  078%=      5-min Rain = 0
KMC1 091550Z 20004KT 24/20 A2997 RMK A01 T02420203  RH  078%=      5-min Rain = 0
KMC1 091551Z 19006KT 24/20 A2997 RMK A01 T02420202  RH  078%=      5-min Rain = 0
KMC1 091552Z 20004KT 24/20 A2997 RMK A01 T02420202  RH  078%=      5-min Rain = 0
KMC1 091553Z 20004KT 24/20 A2997 RMK A01 T02430203  RH  079%=      5-min Rain = 0
KMC1 091554Z 19004KT 24/20 A2997 RMK A01 T02430203  RH  078%=      5-min Rain = 0
KMC1 091555Z 20004KT 24/20 A2997 RMK A01 T02430203  RH  078%=      5-min Rain = 0
KMC1 091556Z 21005KT 24/20 A2997 RMK A01 T02430203  RH  078%=      5-min Rain = 0
KMC1 091557Z 20004KT 24/20 A2997 RMK A01 T02430202  RH  078%=      5-min Rain = 0
KMC1 091558Z 20005KT 24/20 A2997 RMK A01 T02420203  RH  079%=      5-min Rain = 0
KMC1 091559Z 19005KT 24/20 A2997 RMK A01 T02420202  RH  078%=      5-min Rain = 0
KMC1 091600Z 19005KT 24/20 A2997 RMK A01 T02420202  RH  078%=      5-min Rain = 0
KMC1 091601Z 19005KT 24/20 A2997 RMK A01 T02420202  RH  078%=      5-min Rain = 0
KMC1 091602Z 20004KT 24/20 A2997 RMK A01 T02420204  RH  079%=      5-min Rain = 0
KMC1 091603Z 20004KT 24/20 A2997 RMK A01 T02420203  RH  079%=      5-min Rain = 0
KMC1 091604Z 21003KT 24/20 A2997 RMK A01 T02420202  RH  078%=      5-min Rain = 0
KMC1 091605Z 20002KT 24/21 A2997 RMK A01 T02430206  RH  080%=      5-min Rain = 0
KMC1 091606Z 20003KT 24/21 A2997 RMK A01 T02430206  RH  080%=      5-min Rain = 0
KMC1 091607Z 22004KT 24/20 A2997 RMK A01 T02430204  RH  079%=      5-min Rain = 0
KMC1 091608Z 21004KT 24/20 A2997 RMK A01 T02430203  RH  078%=      5-min Rain = 0
KMC1 091609Z 22003KT 24/20 A2998 RMK A01 T02440204  RH  078%=      5-min Rain = 0
KMC1 091610Z 23003KT 24/21 A2998 RMK A01 T02440205  RH  079%=      5-min Rain = 0
KMC1 091611Z 23004KT 24/21 A2998 RMK A01 T02440205  RH  079%=      5-min Rain = 0
KMC1 091612Z 21004KT 24/20 A2998 RMK A01 T02440204  RH  078%=      5-min Rain = 0
KMC1 091613Z 22005KT 24/20 A2998 RMK A01 T02440203  RH  078%=      5-min Rain = 0
KMC1 091614Z 22006KT 24/20 A2998 RMK A01 T02440203  RH  078%=      5-min Rain = 0
KMC1 091615Z 22005KT 24/20 A2998 RMK A01 T02440204  RH  078%=      5-min Rain = 0
KMC1 091616Z 24005KT 24/20 A2998 RMK A01 T02440204  RH  078%=      5-min Rain = 0
KMC1 091617Z 23006KT 24/21 A2999 RMK A01 T02440205  RH  079%=      5-min Rain = 0
KMC1 091618Z 23006KT 24/20 A2999 RMK A01 T02430204  RH  079%=      5-min Rain = 0
KMC1 091619Z 23005KT 24/20 A2999 RMK A01 T02430204  RH  079%=      5-min Rain = 0
KMC1 091620Z 23004KT 24/21 A2999 RMK A01 T02430205  RH  079%=      5-min Rain = 0
KMC1 091621Z 24005KT 24/21 A2998 RMK A01 T02430205  RH  079%=      5-min Rain = 0
KMC1 091622Z 24005KT 24/20 A2998 RMK A01 T02430204  RH  079%=      5-min Rain = 0
KMC1 091623Z 24005KT 24/20 A2998 RMK A01 T02440204  RH  079%=      5-min Rain = 0
KMC1 091624Z 24005KT 24/20 A2998 RMK A01 T02440204  RH  078%=      5-min Rain = 0
KMC1 091625Z 23006KT 25/20 A2999 RMK A01 T02450204  RH  078%=      5-min Rain = 0
KMC1 091626Z 23006KT 25/20 A2999 RMK A01 T02460203  RH  077%=      5-min Rain = 0
KMC1 091627Z 24006KT 25/20 A2999 RMK A01 T02460203  RH  077%=      5-min Rain = 0
KMC1 091628Z 23007KT 25/20 A2999 RMK A01 T02470203  RH  076%=      5-min Rain = 0
KMC1 091629Z 22008KT 25/20 A2999 RMK A01 T02470201  RH  076%=      5-min Rain = 0
KMC1 091630Z 23006KT 25/20 A2999 RMK A01 T02470201  RH  076%=      5-min Rain = 0
KMC1 091631Z 23007KT 25/20 A2999 RMK A01 T02480201  RH  075%=      5-min Rain = 0
KMC1 091632Z 23007KT 25/20 A2999 RMK A01 T02480200  RH  075%=      5-min Rain = 0
KMC1 091633Z 24008KT 25/20 A2999 RMK A01 T02480199  RH  074%=      5-min Rain = 0
KMC1 091634Z 24008KT 25/20 A2999 RMK A01 T02480200  RH  074%=      5-min Rain = 0
KMC1 091635Z 26006KT 25/20 A2999 RMK A01 T02490202  RH  075%=      5-min Rain = 0
KMC1 091636Z 27008KT 25/20 A2999 RMK A01 T02500203  RH  075%=      5-min Rain = 0
KMC1 091637Z 26009KT 25/20 A2999 RMK A01 T02510202  RH  075%=      5-min Rain = 0
KMC1 091638Z 25008KT 25/20 A2999 RMK A01 T02510202  RH  074%=      5-min Rain = 0
KMC1 091639Z 26007G12KT 25/20 A2999 RMK A01 T02510202  RH  074%=      5-min Rain = 0
KMC1 091640Z 25010KT 25/20 A2999 RMK A01 T02510201  RH  074%=      5-min Rain = 0
KMC1 091641Z 25010KT 25/20 A2999 RMK A01 T02510201  RH  074%=      5-min Rain = 0
KMC1 091642Z 26008KT 25/20 A2999 RMK A01 T02510202  RH  074%=      5-min Rain = 0
KMC1 091643Z 25007KT 25/20 A2999 RMK A01 T02500201  RH  074%=      5-min Rain = 0
KMC1 091644Z 25006KT 25/20 A2999 RMK A01 T02510203  RH  075%=      5-min Rain = 0
KMC1 091645Z 25006KT 25/20 A2999 RMK A01 T02510202  RH  074%=      5-min Rain = 0
KMC1 091646Z 24008KT 25/20 A2999 RMK A01 T02520204  RH  075%=      5-min Rain = 0
KMC1 091647Z 25006KT 25/20 A2999 RMK A01 T02530203  RH  074%=      5-min Rain = 0
KMC1 091648Z 27009KT 25/21 A2998 RMK A01 T02540205  RH  075%=      5-min Rain = 0
KMC1 091649Z 26009KT 26/20 A2998 RMK A01 T02550203  RH  073%=      5-min Rain = 0
KMC1 091650Z 25010KT 26/20 A2998 RMK A01 T02550203  RH  073%=      5-min Rain = 0
KMC1 091651Z 24009KT 26/20 A2998 RMK A01 T02550202  RH  072%=      5-min Rain = 0
KMC1 091652Z 25008KT 26/20 A2998 RMK A01 T02550204  RH  073%=      5-min Rain = 0
KMC1 091653Z 25008KT 26/20 A2998 RMK A01 T02560204  RH  073%=      5-min Rain = 0
KMC1 091654Z 25007G13KT 26/20 A2998 RMK A01 T02570203  RH  072%=      5-min Rain = 0
KMC1 091655Z 26011KT 26/20 A2998 RMK A01 T02580201  RH  071%=      5-min Rain = 0
KMC1 091656Z 26010KT 26/20 A2998 RMK A01 T02590202  RH  071%=      5-min Rain = 0
KMC1 091657Z 27009KT 26/20 A2998 RMK A01 T02590200  RH  070%=      5-min Rain = 0
KMC1 091658Z 27010KT 26/20 A2998 RMK A01 T02600200  RH  070%=      5-min Rain = 0
KMC1 091659Z 26009KT 26/20 A2998 RMK A01 T02600200  RH  070%=      5-min Rain = 0
KMC1 091700Z 26008G13KT 26/20 A2998 RMK A01 T02590202  RH  071%=      5-min Rain = 0
KMC1 091701Z 27011KT 26/20 A2998 RMK A01 T02600201  RH  070%=      5-min Rain = 0
KMC1 091702Z 27010KT 26/20 A2998 RMK A01 T02610199  RH  069%=      5-min Rain = 0
KMC1 091703Z 27007KT 26/20 A2998 RMK A01 T02620201  RH  069%=      5-min Rain = 0
KMC1 091704Z 27011KT 26/20 A2998 RMK A01 T02630198  RH  067%=      5-min Rain = 0
KMC1 091705Z 27010KT 26/20 A2998 RMK A01 T02630197  RH  067%=      5-min Rain = 0
KMC1 091706Z 27008KT 26/20 A2998 RMK A01 T02630198  RH  068%=      5-min Rain = 0
KMC1 091707Z 26009KT 26/20 A2998 RMK A01 T02620197  RH  067%=      5-min Rain = 0
KMC1 091708Z 27008KT 26/19 A2998 RMK A01 T02620194  RH  066%=      5-min Rain = 0
KMC1 091709Z 27007KT 26/20 A2998 RMK A01 T02640200  RH  068%=      5-min Rain = 0
KMC1 091710Z 26010KT 27/20 A2998 RMK A01 T02670200  RH  067%=      5-min Rain = 0
KMC1 091711Z 27008KT 27/19 A2998 RMK A01 T02680194  RH  064%=      5-min Rain = 0
KMC1 091712Z 26008G15KT 27/20 A2998 RMK A01 T02680199  RH  066%=      5-min Rain = 0
KMC1 091713Z 26011KT 27/20 A2998 RMK A01 T02700196  RH  064%=      5-min Rain = 0
KMC1 091714Z 27010G15KT 27/19 A2998 RMK A01 T02700193  RH  063%=      5-min Rain = 0
KMC1 091715Z 27010KT 27/20 A2998 RMK A01 T02700196  RH  064%=      5-min Rain = 0
KMC1 091716Z 26012G17KT 27/19 A2998 RMK A01 T02700191  RH  062%=      5-min Rain = 0
KMC1 091717Z 26013KT 27/19 A2998 RMK A01 T02700189  RH  061%=      5-min Rain = 0
KMC1 091718Z 25011G17KT 27/19 A2998 RMK A01 T02690190  RH  062%=      5-min Rain = 0
KMC1 091719Z 26013KT 27/19 A2998 RMK A01 T02700190  RH  062%=      5-min Rain = 0
KMC1 091720Z 25012G17KT 27/19 A2998 RMK A01 T02700190  RH  061%=      5-min Rain = 0
KMC1 091721Z 25009KT 27/19 A2998 RMK A01 T02700191  RH  062%=      5-min Rain = 0
KMC1 091722Z 26009KT 27/19 A2998 RMK A01 T02720193  RH  062%=      5-min Rain = 0
KMC1 091723Z 25009G14KT 27/19 A2998 RMK A01 T02730193  RH  061%=      5-min Rain = 0
KMC1 091724Z 26008G14KT 27/19 A2998 RMK A01 T02740191  RH  060%=      5-min Rain = 0
KMC1 091725Z 26007G13KT 28/19 A2998 RMK A01 T02750194  RH  061%=      5-min Rain = 0
KMC1 091726Z 27007G15KT 28/19 A2998 RMK A01 T02760192  RH  060%=      5-min Rain = 0
KMC1 091727Z 27011KT 28/19 A2998 RMK A01 T02770186  RH  057%=      5-min Rain = 0
KMC1 091728Z 28008G13KT 28/19 A2998 RMK A01 T02760190  RH  059%=      5-min Rain = 0
KMC1 091729Z 28012KT 28/19 A2998 RMK A01 T02760185  RH  057%=      5-min Rain = 0
KMC1 091730Z 27010KT 28/19 A2998 RMK A01 T02760191  RH  060%=      5-min Rain = 0
KMC1 091731Z 27012KT 28/19 A2998 RMK A01 T02770185  RH  057%=      5-min Rain = 0
KMC1 091732Z 26010KT 28/19 A2998 RMK A01 T02770185  RH  057%=      5-min Rain = 0
KMC1 091733Z 28008KT 28/19 A2998 RMK A01 T02770187  RH  058%=      5-min Rain = 0
KMC1 091734Z 28009KT 28/19 A2998 RMK A01 T02780189  RH  058%=      5-min Rain = 0
KMC1 091735Z 29013KT 28/18 A2998 RMK A01 T02800184  RH  056%=      5-min Rain = 0
KMC1 091736Z 28011KT 28/18 A2998 RMK A01 T02800182  RH  055%=      5-min Rain = 0
KMC1 091737Z 28008KT 28/18 A2998 RMK A01 T02800184  RH  056%=      5-min Rain = 0
KMC1 091738Z 29008KT 28/19 A2998 RMK A01 T02800188  RH  057%=      5-min Rain = 0
KMC1 091739Z 29006G12KT 28/19 A2998 RMK A01 T02820188  RH  056%=      5-min Rain = 0
KMC1 091740Z 28010KT 28/18 A2998 RMK A01 T02840183  RH  054%=      5-min Rain = 0
KMC1 091741Z 27009KT 28/19 A2998 RMK A01 T02840185  RH  055%=      5-min Rain = 0
KMC1 091742Z 25009G14KT 28/18 A2998 RMK A01 T02830184  RH  055%=      5-min Rain = 0
KMC1 091743Z 27007KT 28/18 A2997 RMK A01 T02830182  RH  054%=      5-min Rain = 0
KMC1 091744Z 26010KT 28/19 A2997 RMK A01 T02830185  RH  055%=      5-min Rain = 0
KMC1 091745Z 26011KT 28/18 A2997 RMK A01 T02830179  RH  053%=      5-min Rain = 0
KMC1 091746Z 26008KT 28/18 A2997 RMK A01 T02820179  RH  053%=      5-min Rain = 0
KMC1 091747Z 27014KT 28/18 A2997 RMK A01 T02800176  RH  053%=      5-min Rain = 0
KMC1 091748Z 26009KT 28/18 A2997 RMK A01 T02780177  RH  054%=      5-min Rain = 0
KMC1 091749Z 26014KT 28/18 A2997 RMK A01 T02780176  RH  054%=      5-min Rain = 0
KMC1 091750Z 27011G16KT 28/17 A2997 RMK A01 T02770173  RH  053%=      5-min Rain = 0
KMC1 091751Z 28010KT 28/18 A2997 RMK A01 T02760175  RH  054%=      5-min Rain = 0
KMC1 091752Z 29011KT 28/18 A2997 RMK A01 T02760177  RH  055%=      5-min Rain = 0
KMC1 091753Z 27011KT 28/18 A2997 RMK A01 T02770176  RH  054%=      5-min Rain = 0
KMC1 091754Z 28009KT 28/18 A2997 RMK A01 T02780180  RH  055%=      5-min Rain = 0
KMC1 091755Z 29011KT 28/18 A2997 RMK A01 T02790179  RH  054%=      5-min Rain = 0
KMC1 091756Z 29009KT 28/18 A2997 RMK A01 T02800182  RH  055%=      5-min Rain = 0
KMC1 091757Z 30009KT 28/18 A2997 RMK A01 T02820176  RH  053%=      5-min Rain = 0
KMC1 091758Z 30011KT 28/18 A2997 RMK A01 T02840177  RH  052%=      5-min Rain = 0
KMC1 091759Z 31012G17KT 29/17 A2997 RMK A01 T02860169  RH  049%=      5-min Rain = 0
KMC1 091800Z 30009G15KT 29/16 A2997 RMK A01 T02870163  RH  047%=      5-min Rain = 0
KMC1 091801Z 29009KT 29/17 A2997 RMK A01 T02850171  RH  050%=      5-min Rain = 0
KMC1 091802Z 29010KT 29/17 A2997 RMK A01 T02850169  RH  049%=      5-min Rain = 0
KMC1 091803Z 30011G17KT 29/17 A2997 RMK A01 T02850170  RH  050%=      5-min Rain = 0
KMC1 091804Z 30015KT 28/16 A2996 RMK A01 T02830155  RH  046%=      5-min Rain = 0
KMC1 091805Z 31011KT 28/15 A2996 RMK A01 T02790152  RH  046%=      5-min Rain = 0
KMC1 091806Z 29014KT 28/16 A2996 RMK A01 T02770157  RH  048%=      5-min Rain = 0
KMC1 091807Z 29009KT 28/16 A2996 RMK A01 T02770159  RH  049%=      5-min Rain = 0
KMC1 091808Z 30007KT 28/17 A2996 RMK A01 T02780166  RH  050%=      5-min Rain = 0
KMC1 091809Z 29007KT 28/17 A2996 RMK A01 T02820167  RH  050%=      5-min Rain = 0
KMC1 091810Z 30010G16KT 28/16 A2996 RMK A01 T02840164  RH  048%=      5-min Rain = 0
KMC1 091811Z 30009G15KT 29/16 A2996 RMK A01 T02850160  RH  047%=      5-min Rain = 0
KMC1 091812Z 29008KT 29/17 A2996 RMK A01 T02850166  RH  048%=      5-min Rain = 0
KMC1 091813Z 29013KT 29/16 A2996 RMK A01 T02850157  RH  046%=      5-min Rain = 0
KMC1 091814Z 30011G17KT 29/15 A2996 RMK A01 T02850153  RH  045%=      5-min Rain = 0
KMC1 091815Z 28009G14KT 28/16 A2995 RMK A01 T02830158  RH  047%=      5-min Rain = 0
KMC1 091816Z 30010KT 28/16 A2995 RMK A01 T02830157  RH  046%=      5-min Rain = 0
KMC1 091817Z 29010KT 28/16 A2995 RMK A01 T02830160  RH  047%=      5-min Rain = 0
KMC1 091818Z 28008KT 28/16 A2995 RMK A01 T02840159  RH  047%=      5-min Rain = 0
KMC1 091819Z 29009KT 28/16 A2995 RMK A01 T02840164  RH  048%=      5-min Rain = 0
KMC1 091820Z 30007KT 28/16 A2995 RMK A01 T02840161  RH  047%=      5-min Rain = 0
KMC1 091821Z 31008KT 28/16 A2995 RMK A01 T02830162  RH  048%=      5-min Rain = 0
KMC1 091822Z 30010KT 28/16 A2995 RMK A01 T02830160  RH  047%=      5-min Rain = 0
KMC1 091823Z 30010KT 28/16 A2995 RMK A01 T02820155  RH  046%=      5-min Rain = 0
KMC1 091824Z 30009KT 28/16 A2995 RMK A01 T02820159  RH  047%=      5-min Rain = 0
KMC1 091825Z 30011KT 28/16 A2995 RMK A01 T02830155  RH  046%=      5-min Rain = 0
KMC1 091826Z 31009KT 28/15 A2995 RMK A01 T02840151  RH  044%=      5-min Rain = 0
KMC1 091827Z 31010KT 28/16 A2995 RMK A01 T02840157  RH  046%=      5-min Rain = 0
KMC1 091828Z 28006KT 29/16 A2995 RMK A01 T02850159  RH  046%=      5-min Rain = 0
KMC1 091829Z 28011KT 29/15 A2995 RMK A01 T02860153  RH  044%=      5-min Rain = 0
KMC1 091830Z 30012KT 29/15 A2995 RMK A01 T02850147  RH  043%=      5-min Rain = 0
KMC1 091831Z 29012KT 28/15 A2995 RMK A01 T02840148  RH  044%=      5-min Rain = 0
KMC1 091832Z 30010KT 28/15 A2995 RMK A01 T02830147  RH  043%=      5-min Rain = 0
KMC1 091833Z 29011KT 28/15 A2995 RMK A01 T02830149  RH  044%=      5-min Rain = 0
KMC1 091834Z 29009KT 28/15 A2995 RMK A01 T02840150  RH  044%=      5-min Rain = 0
KMC1 091835Z 29011KT 28/15 A2995 RMK A01 T02840150  RH  044%=      5-min Rain = 0
KMC1 091836Z 29012KT 29/15 A2995 RMK A01 T02850150  RH  044%=      5-min Rain = 0
KMC1 091837Z 29009KT 29/15 A2995 RMK A01 T02860150  RH  044%=      5-min Rain = 0
KMC1 091838Z 30008KT 29/15 A2995 RMK A01 T02860154  RH  045%=      5-min Rain = 0
KMC1 091839Z 30012KT 29/16 A2995 RMK A01 T02880156  RH  045%=      5-min Rain = 0
KMC1 091840Z 30011KT 29/15 A2995 RMK A01 T02880152  RH  044%=      5-min Rain = 0
KMC1 091841Z 31010KT 29/15 A2995 RMK A01 T02880153  RH  044%=      5-min Rain = 0
KMC1 091842Z 31010KT 29/15 A2995 RMK A01 T02880149  RH  042%=      5-min Rain = 0
KMC1 091843Z 31009KT 29/15 A2995 RMK A01 T02880149  RH  043%=      5-min Rain = 0
KMC1 091844Z 31012KT 29/15 A2995 RMK A01 T02880152  RH  044%=      5-min Rain = 0
KMC1 091845Z 31008KT 29/15 A2995 RMK A01 T02870151  RH  044%=      5-min Rain = 0
KMC1 091846Z 31007KT 29/16 A2995 RMK A01 T02850155  RH  045%=      5-min Rain = 0
KMC1 091847Z 32007KT 29/15 A2995 RMK A01 T02850154  RH  045%=      5-min Rain = 0
KMC1 091848Z 31007KT 29/16 A2995 RMK A01 T02850158  RH  046%=      5-min Rain = 0
KMC1 091849Z 30010KT 29/16 A2995 RMK A01 T02860159  RH  046%=      5-min Rain = 0
KMC1 091850Z 30010KT 29/15 A2995 RMK A01 T02880154  RH  044%=      5-min Rain = 0
KMC1 091851Z 29010KT 29/15 A2995 RMK A01 T02900153  RH  044%=      5-min Rain = 0
KMC1 091852Z 28011KT 29/15 A2995 RMK A01 T02910153  RH  043%=      5-min Rain = 0
KMC1 091853Z 28009G14KT 29/14 A2995 RMK A01 T02910141  RH  040%=      5-min Rain = 0
KMC1 091854Z 28009KT 29/15 A2995 RMK A01 T02900145  RH  041%=      5-min Rain = 0
KMC1 091855Z 30008KT 29/15 A2995 RMK A01 T02890145  RH  041%=      5-min Rain = 0
KMC1 091856Z 29005KT 29/15 A2995 RMK A01 T02880152  RH  043%=      5-min Rain = 0
KMC1 091857Z 30006KT 29/15 A2995 RMK A01 T02890152  RH  043%=      5-min Rain = 0
KMC1 091858Z 31007KT 29/15 A2995 RMK A01 T02890153  RH  043%=      5-min Rain = 0
KMC1 091859Z 30009KT 29/15 A2995 RMK A01 T02900151  RH  043%=      5-min Rain = 0
KMC1 091900Z 31006KT 29/15 A2995 RMK A01 T02890147  RH  042%=      5-min Rain = 0
KMC1 091901Z 31007KT 29/14 A2995 RMK A01 T02870142  RH  041%=      5-min Rain = 0
KMC1 091902Z 31009KT 28/14 A2995 RMK A01 T02830137  RH  041%=      5-min Rain = 0
KMC1 091903Z 32006KT 28/14 A2995 RMK A01 T02810135  RH  041%=      5-min Rain = 0
KMC1 091904Z 31006KT 28/14 A2995 RMK A01 T02790136  RH  041%=      5-min Rain = 0
KMC1 091905Z 30010KT 28/14 A2995 RMK A01 T02780138  RH  042%=      5-min Rain = 0
KMC1 091906Z 29009KT 28/13 A2995 RMK A01 T02770134  RH  041%=      5-min Rain = 0
KMC1 091907Z 29010KT 28/13 A2995 RMK A01 T02770134  RH  042%=      5-min Rain = 0
KMC1 091908Z 28006KT 28/14 A2995 RMK A01 T02760137  RH  042%=      5-min Rain = 0
KMC1 091909Z 27007KT 28/14 A2995 RMK A01 T02750136  RH  042%=      5-min Rain = 0
KMC1 091910Z 27008KT 28/13 A2995 RMK A01 T02750133  RH  041%=      5-min Rain = 0
KMC1 091911Z 28010KT 28/13 A2995 RMK A01 T02750125  RH  039%=      5-min Rain = 0
KMC1 091912Z 29007KT 28/12 A2995 RMK A01 T02750124  RH  039%=      5-min Rain = 0
KMC1 091913Z 29009KT 27/13 A2995 RMK A01 T02740126  RH  040%=      5-min Rain = 0
KMC1 091914Z 29007KT 27/13 A2995 RMK A01 T02740128  RH  040%=      5-min Rain = 0
KMC1 091915Z 28006KT 27/13 A2995 RMK A01 T02730129  RH  041%=      5-min Rain = 0
KMC1 091916Z 28006KT 27/13 A2995 RMK A01 T02720129  RH  041%=      5-min Rain = 0
KMC1 091917Z 29008KT 27/13 A2995 RMK A01 T02720130  RH  042%=      5-min Rain = 0
KMC1 091918Z 29010KT 27/12 A2995 RMK A01 T02720124  RH  040%=      5-min Rain = 0
KMC1 091919Z 30006KT 27/12 A2995 RMK A01 T02710124  RH  040%=      5-min Rain = 0
KMC1 091920Z 30009KT 27/13 A2995 RMK A01 T02710128  RH  041%=      5-min Rain = 0
KMC1 091921Z 30008KT 27/13 A2995 RMK A01 T02700126  RH  041%=      5-min Rain = 0
KMC1 091922Z 30007KT 27/13 A2995 RMK A01 T02700127  RH  041%=      5-min Rain = 0
KMC1 091923Z 30007KT 27/12 A2995 RMK A01 T02690123  RH  040%=      5-min Rain = 0
KMC1 091924Z 29008KT 27/12 A2995 RMK A01 T02690122  RH  040%=      5-min Rain = 0
KMC1 091925Z 28006KT 27/12 A2995 RMK A01 T02690117  RH  039%=      5-min Rain = 0
KMC1 091926Z 29007KT 27/12 A2995 RMK A01 T02690117  RH  039%=      5-min Rain = 0
KMC1 091927Z 31008KT 27/12 A2996 RMK A01 T02680118  RH  039%=      5-min Rain = 0
KMC1 091928Z 30008KT 27/12 A2996 RMK A01 T02680117  RH  039%=      5-min Rain = 0
KMC1 091929Z 35007KT 27/12 A2996 RMK A01 T02670123  RH  041%=      5-min Rain = 0
KMC1 091930Z 36009KT 27/13 A2996 RMK A01 T02660131  RH  043%=      5-min Rain = 0
KMC1 091931Z 00006KT 27/14 A2996 RMK A01 T02650137  RH  045%=      5-min Rain = 0
KMC1 091932Z 02007KT 26/14 A2995 RMK A01 T02630137  RH  046%=      5-min Rain = 0
KMC1 091933Z 02006KT 26/14 A2995 RMK A01 T02620138  RH  046%=      5-min Rain = 0
KMC1 091934Z 01005KT 26/14 A2995 RMK A01 T02610138  RH  047%=      5-min Rain = 0
KMC1 091935Z 02005KT 26/14 A2996 RMK A01 T02600139  RH  047%=      5-min Rain = 0
KMC1 091936Z 02004KT 26/14 A2996 RMK A01 T02590138  RH  047%=      5-min Rain = 0
KMC1 091937Z 00004KT 26/14 A2996 RMK A01 T02590141  RH  048%=      5-min Rain = 0
KMC1 091938Z 36005KT 26/14 A2996 RMK A01 T02580137  RH  047%=      5-min Rain = 0
KMC1 091939Z 00005KT 26/14 A2996 RMK A01 T02580138  RH  047%=      5-min Rain = 0
KMC1 091940Z 01005KT 26/14 A2996 RMK A01 T02570137  RH  048%=      5-min Rain = 0
KMC1 091941Z 01006KT 26/14 A2996 RMK A01 T02570137  RH  047%=      5-min Rain = 0
KMC1 091942Z 00005KT 26/14 A2996 RMK A01 T02560135  RH  047%=      5-min Rain = 0
KMC1 091943Z 36005KT 26/14 A2996 RMK A01 T02570136  RH  047%=      5-min Rain = 0
KMC1 091944Z 36005KT 26/14 A2996 RMK A01 T02560135  RH  047%=      5-min Rain = 0
KMC1 091945Z 35006KT 26/14 A2996 RMK A01 T02560137  RH  048%=      5-min Rain = 0
KMC1 091946Z 00008KT 26/13 A2996 RMK A01 T02560134  RH  047%=      5-min Rain = 0
KMC1 091947Z 00008KT 26/13 A2996 RMK A01 T02560133  RH  047%=      5-min Rain = 0
KMC1 091948Z 00009KT 26/14 A2995 RMK A01 T02560137  RH  048%=      5-min Rain = 0
KMC1 091949Z 01010KT 26/14 A2995 RMK A01 T02560138  RH  048%=      5-min Rain = 0
KMC1 091950Z 00009KT 26/14 A2995 RMK A01 T02550142  RH  049%=      5-min Rain = 0
KMC1 091951Z 01008KT 26/15 A2995 RMK A01 T02550145  RH  051%=      5-min Rain = 0
KMC1 091952Z 01009KT 25/15 A2995 RMK A01 T02530146  RH  052%=      5-min Rain = 0
KMC1 091953Z 01009KT 25/15 A2995 RMK A01 T02510149  RH  053%=      5-min Rain = 0
KMC1 091954Z 02009KT 25/15 A2994 RMK A01 T02500151  RH  054%=      5-min Rain = 0
KMC1 091955Z 03009KT 25/15 A2994 RMK A01 T02490151  RH  054%=      5-min Rain = 0
KMC1 091956Z 03008KT 25/15 A2993 RMK A01 T02480152  RH  055%=      5-min Rain = 0
KMC1 091957Z 03009KT 25/16 A2993 RMK A01 T02480157  RH  057%=      5-min Rain = 0
KMC1 091958Z 03011KT 25/16 A2993 RMK A01 T02470160  RH  058%=      5-min Rain = 0
KMC1 091959Z 03011KT 25/16 A2992 RMK A01 T02470160  RH  059%=      5-min Rain = 0
KMC1 092000Z 03010KT 25/16 A2992 RMK A01 T02460162  RH  059%=      5-min Rain = 0
KMC1 092001Z 03007KT 25/16 A2992 RMK A01 T02450162  RH  060%=      5-min Rain = 0
KMC1 092002Z 04009KT 25/16 A2992 RMK A01 T02450163  RH  060%=      5-min Rain = 0
KMC1 092003Z 03010KT 25/16 A2992 RMK A01 T02460162  RH  059%=      5-min Rain = 0
KMC1 092004Z 03009KT 25/16 A2992 RMK A01 T02450159  RH  059%=      5-min Rain = 0
KMC1 092005Z 03007KT 25/16 A2992 RMK A01 T02450162  RH  060%=      5-min Rain = 0
KMC1 092006Z 03010KT 25/16 A2992 RMK A01 T02460157  RH  058%=      5-min Rain = 0
KMC1 092007Z 04007KT 25/16 A2992 RMK A01 T02460158  RH  058%=      5-min Rain = 0
KMC1 092008Z 05006KT 25/16 A2992 RMK A01 T02470163  RH  059%=      5-min Rain = 0
KMC1 092009Z 05006KT 25/16 A2992 RMK A01 T02480162  RH  059%=      5-min Rain = 0
KMC1 092010Z 05008KT 25/17 A2992 RMK A01 T02480165  RH  060%=      5-min Rain = 0
KMC1 092011Z 04006KT 25/16 A2992 RMK A01 T02480164  RH  059%=      5-min Rain = 0
KMC1 092012Z 04009KT 25/17 A2992 RMK A01 T02480165  RH  060%=      5-min Rain = 0
KMC1 092013Z 04009KT 25/16 A2992 RMK A01 T02470163  RH  059%=      5-min Rain = 0
KMC1 092014Z 03008KT 25/16 A2992 RMK A01 T02470164  RH  060%=      5-min Rain = 0
KMC1 092015Z 04007KT 25/17 A2992 RMK A01 T02470167  RH  061%=      5-min Rain = 0
KMC1 092016Z 04006KT 25/17 A2992 RMK A01 T02460165  RH  061%=      5-min Rain = 0
KMC1 092017Z 04006KT 25/17 A2992 RMK A01 T02460168  RH  062%=      5-min Rain = 0
KMC1 092018Z 05007G14KT 25/17 A2992 RMK A01 T02460167  RH  061%=      5-min Rain = 0
KMC1 092019Z 05010KT 25/16 A2992 RMK A01 T02460162  RH  059%=      5-min Rain = 0
KMC1 092020Z 05005KT 25/16 A2992 RMK A01 T02450161  RH  059%=      5-min Rain = 0
KMC1 092021Z 06006KT 25/16 A2992 RMK A01 T02450163  RH  060%=      5-min Rain = 0
KMC1 092022Z 06007KT 25/16 A2992 RMK A01 T02450164  RH  060%=      5-min Rain = 0
KMC1 092023Z 05008KT 25/16 A2991 RMK A01 T02460159  RH  058%=      5-min Rain = 0
KMC1 092024Z 07007KT 25/16 A2991 RMK A01 T02460162  RH  060%=      5-min Rain = 0
KMC1 092025Z 05007KT 25/17 A2991 RMK A01 T02460165  RH  061%=      5-min Rain = 0
KMC1 092026Z 06007KT 25/17 A2991 RMK A01 T02460170  RH  063%=      5-min Rain = 0
KMC1 092027Z 06006KT 25/17 A2991 RMK A01 T02460168  RH  062%=      5-min Rain = 0
KMC1 092028Z 07007KT 25/17 A2991 RMK A01 T02450168  RH  062%=      5-min Rain = 0
KMC1 092029Z 06007KT 25/17 A2991 RMK A01 T02450166  RH  061%=      5-min Rain = 0
KMC1 092030Z 06004KT 25/17 A2991 RMK A01 T02450167  RH  062%=      5-min Rain = 0
KMC1 092031Z 07005KT 25/17 A2991 RMK A01 T02450170  RH  063%=      5-min Rain = 0
KMC1 092032Z 07004KT 24/17 A2991 RMK A01 T02440165  RH  061%=      5-min Rain = 0
KMC1 092033Z 05004KT 24/16 A2991 RMK A01 T02440164  RH  061%=      5-min Rain = 0
KMC1 092034Z 05008KT 25/16 A2991 RMK A01 T02450164  RH  061%=      5-min Rain = 0
KMC1 092035Z 06007KT 25/16 A2991 RMK A01 T02450157  RH  058%=      5-min Rain = 0
KMC1 092036Z 06007KT 25/16 A2991 RMK A01 T02450160  RH  059%=      5-min Rain = 0
KMC1 092037Z 05006KT 25/16 A2991 RMK A01 T02460162  RH  059%=      5-min Rain = 0
KMC1 092038Z 06005KT 25/16 A299 RMK A01 T02460163  RH  060%=      5-min Rain = 0
KMC1 092039Z 06007KT 25/17 A299 RMK A01 T02470165  RH  060%=      5-min Rain = 0
KMC1 092040Z 07005KT 25/16 A299 RMK A01 T02480162  RH  059%=      5-min Rain = 0
KMC1 092041Z 06007KT 25/17 A299 RMK A01 T02500165  RH  059%=      5-min Rain = 0
KMC1 092042Z 05004KT 25/16 A299 RMK A01 T02520161  RH  057%=      5-min Rain = 0
KMC1 092043Z 05005KT 25/16 A299 RMK A01 T02530164  RH  058%=      5-min Rain = 0
KMC1 092044Z 04007KT 25/16 A2991 RMK A01 T02530161  RH  057%=      5-min Rain = 0
KMC1 092045Z 05006KT 25/16 A2991 RMK A01 T02530158  RH  056%=      5-min Rain = 0
KMC1 092046Z 06006KT 25/16 A2991 RMK A01 T02520157  RH  055%=      5-min Rain = 0
KMC1 092047Z 06005KT 25/16 A2991 RMK A01 T02520157  RH  056%=      5-min Rain = 0
KMC1 092048Z 07003KT 25/16 A2991 RMK A01 T02520160  RH  057%=      5-min Rain = 0
KMC1 092049Z 07003KT 25/16 A2991 RMK A01 T02520160  RH  057%=      5-min Rain = 0
KMC1 092050Z 06005KT 25/16 A2991 RMK A01 T02520156  RH  055%=      5-min Rain = 0
KMC1 092051Z 06006KT 25/15 A2991 RMK A01 T02510152  RH  054%=      5-min Rain = 0
KMC1 092052Z 06005KT 25/15 A2991 RMK A01 T02510146  RH  052%=      5-min Rain = 0
KMC1 092053Z 05006KT 25/15 A2991 RMK A01 T02500145  RH  052%=      5-min Rain = 0
KMC1 092054Z 05006KT 25/15 A2991 RMK A01 T02500146  RH  052%=      5-min Rain = 0
KMC1 092055Z 06005KT 25/15 A2991 RMK A01 T02500150  RH  054%=      5-min Rain = 0
KMC1 092056Z 07005KT 25/15 A2991 RMK A01 T02490152  RH  055%=      5-min Rain = 0
KMC1 092057Z 07004KT 25/15 A2991 RMK A01 T02490150  RH  054%=      5-min Rain = 0
KMC1 092058Z 07003KT 25/15 A2991 RMK A01 T02480152  RH  055%=      5-min Rain = 0
KMC1 092059Z 06002KT 25/16 A2991 RMK A01 T02480157  RH  057%=      5-min Rain = 0
KMC1 092100Z 06004KT 25/15 A2992 RMK A01 T02480154  RH  056%=      5-min Rain = 0
KMC1 092101Z 08004KT 25/15 A2992 RMK A01 T02480153  RH  055%=      5-min Rain = 0
KMC1 092102Z 06002KT 25/15 A2992 RMK A01 T02480153  RH  056%=      5-min Rain = 0
KMC1 092103Z 05001KT 25/15 A2992 RMK A01 T02480152  RH  055%=      5-min Rain = 0
KMC1 092104Z 08001KT 25/15 A2992 RMK A01 T02480150  RH  054%=      5-min Rain = 0
KMC1 092105Z 09000KT 25/15 A2993 RMK A01 T02480154  RH  056%=      5-min Rain = 0
KMC1 092106Z 03001KT 25/15 A2993 RMK A01 T02480150  RH  055%=      5-min Rain = 0
KMC1 092107Z 02002KT 25/15 A2993 RMK A01 T02480147  RH  054%=      5-min Rain = 0
KMC1 092108Z 05002KT 25/15 A2993 RMK A01 T02480151  RH  055%=      5-min Rain = 0
KMC1 092109Z 06002KT 25/16 A2993 RMK A01 T02480156  RH  057%=      5-min Rain = 0
KMC1 092110Z 06003KT 25/15 A2993 RMK A01 T02480152  RH  055%=      5-min Rain = 0
KMC1 092111Z 05002KT 25/16 A2993 RMK A01 T02480157  RH  057%=      5-min Rain = 0
KMC1 092112Z 05002KT 25/15 A2993 RMK A01 T02470151  RH  055%=      5-min Rain = 0
KMC1 092113Z 06003KT 25/16 A2993 RMK A01 T02470156  RH  057%=      5-min Rain = 0
KMC1 092114Z 07003KT 25/17 A2993 RMK A01 T02460169  RH  062%=      5-min Rain = 0
KMC1 092115Z 06003KT 25/17 A2993 RMK A01 T02460167  RH  061%=      5-min Rain = 0
KMC1 092116Z 07002KT 25/17 A2993 RMK A01 T02470169  RH  062%=      5-min Rain = 0
KMC1 092117Z 06002KT 25/17 A2993 RMK A01 T02470165  RH  060%=      5-min Rain = 0
KMC1 092118Z 06002KT 25/17 A2993 RMK A01 T02480168  RH  061%=      5-min Rain = 0
KMC1 092119Z 06002KT 25/17 A2992 RMK A01 T02490169  RH  061%=      5-min Rain = 0
KMC1 092120Z 05003KT 25/16 A2992 RMK A01 T02500164  RH  059%=      5-min Rain = 0
KMC1 092121Z 03004KT 25/17 A2992 RMK A01 T02510169  RH  060%=      5-min Rain = 0
KMC1 092122Z 03003KT 25/17 A2992 RMK A01 T02510165  RH  059%=      5-min Rain = 0
KMC1 092123Z 04003KT 25/16 A2992 RMK A01 T02520164  RH  058%=      5-min Rain = 0
KMC1 092124Z 04003KT 25/16 A2992 RMK A01 T02520163  RH  058%=      5-min Rain = 0
KMC1 092125Z 04003KT 25/16 A2992 RMK A01 T02530160  RH  057%=      5-min Rain = 0
KMC1 092126Z 05002KT 25/16 A2992 RMK A01 T02530155  RH  054%=      5-min Rain = 0
KMC1 092127Z 06002KT 25/16 A2992 RMK A01 T02530158  RH  056%=      5-min Rain = 0
KMC1 092128Z 06002KT 25/16 A2992 RMK A01 T02540161  RH  056%=      5-min Rain = 0
KMC1 092129Z 08003KT 25/16 A2992 RMK A01 T02540164  RH  057%=      5-min Rain = 0
KMC1 092130Z 06003KT 26/15 A2992 RMK A01 T02550154  RH  054%=      5-min Rain = 0
KMC1 092131Z 06004KT 26/15 A2991 RMK A01 T02550151  RH  053%=      5-min Rain = 0
KMC1 092132Z 05003KT 26/15 A2991 RMK A01 T02550148  RH  051%=      5-min Rain = 0
KMC1 092133Z 06003KT 26/15 A2991 RMK A01 T02560149  RH  052%=      5-min Rain = 0
KMC1 092134Z 07004KT 26/16 A2991 RMK A01 T02550155  RH  054%=      5-min Rain = 0
KMC1 092135Z 07004KT 26/16 A2991 RMK A01 T02550157  RH  055%=      5-min Rain = 0
KMC1 092136Z 05004KT 26/15 A2991 RMK A01 T02550151  RH  053%=      5-min Rain = 0
KMC1 092137Z 05004KT 25/15 A2991 RMK A01 T02540145  RH  051%=      5-min Rain = 0
KMC1 092138Z 06003KT 25/15 A2991 RMK A01 T02530150  RH  053%=      5-min Rain = 0
KMC1 092139Z 06003KT 25/15 A2991 RMK A01 T02530147  RH  052%=      5-min Rain = 0
KMC1 092140Z 06003KT 25/14 A2991 RMK A01 T02520143  RH  051%=      5-min Rain = 0
KMC1 092141Z 04003KT 25/14 A2992 RMK A01 T02520138  RH  049%=      5-min Rain = 0
KMC1 092142Z 06003KT 25/14 A2992 RMK A01 T02520137  RH  049%=      5-min Rain = 0
KMC1 092143Z 05001KT 25/14 A2992 RMK A01 T02520137  RH  049%=      5-min Rain = 0
KMC1 092144Z 04002KT 25/14 A2992 RMK A01 T02520139  RH  049%=      5-min Rain = 0
KMC1 092145Z 00002KT 25/14 A2992 RMK A01 T02520143  RH  051%=      5-min Rain = 0
KMC1 092146Z 34002KT 25/14 A2993 RMK A01 T02520142  RH  051%=      5-min Rain = 0
KMC1 092147Z 34002KT 25/15 A2993 RMK A01 T02520150  RH  053%=      5-min Rain = 0
KMC1 092148Z 35002KT 25/14 A2993 RMK A01 T02510144  RH  051%=      5-min Rain = 0
KMC1 092149Z 35002KT 25/15 A2993 RMK A01 T02510148  RH  053%=      5-min Rain = 0
KMC1 092150Z 34002KT 25/16 A2993 RMK A01 T02510155  RH  055%=      5-min Rain = 0
KMC1 092151Z 35003KT 25/16 A2993 RMK A01 T02510155  RH  055%=      5-min Rain = 0
KMC1 092152Z 01003KT 25/16 A2992 RMK A01 T02500158  RH  056%=      5-min Rain = 0
KMC1 092153Z 01003KT 25/16 A2992 RMK A01 T02500160  RH  057%=      5-min Rain = 0
KMC1 092154Z 02005KT 25/16 A2992 RMK A01 T02500157  RH  056%=      5-min Rain = 0
KMC1 092155Z 03006KT 25/16 A2992 RMK A01 T02490155  RH  056%=      5-min Rain = 0
KMC1 092156Z 03006KT 25/16 A2991 RMK A01 T02480156  RH  056%=      5-min Rain = 0
KMC1 092157Z 03005KT 25/16 A2991 RMK A01 T02470160  RH  058%=      5-min Rain = 0
KMC1 092158Z 04006KT 25/16 A2991 RMK A01 T02460161  RH  059%=      5-min Rain = 0
KMC1 092159Z 04005KT 25/16 A299 RMK A01 T02460162  RH  060%=      5-min Rain = 0
KMC1 092200Z 04005KT 25/17 A299 RMK A01 T02460165  RH  061%=      5-min Rain = 0
KMC1 092201Z 05005KT 25/16 A299 RMK A01 T02470164  RH  060%=      5-min Rain = 0
KMC1 092202Z 04006KT 25/16 A299 RMK A01 T02470161  RH  058%=      5-min Rain = 0
KMC1 092203Z 04006KT 25/16 A299 RMK A01 T02480161  RH  058%=      5-min Rain = 0
KMC1 092204Z 04007KT 25/16 A299 RMK A01 T02480157  RH  057%=      5-min Rain = 0
KMC1 092205Z 04005KT 25/16 A299 RMK A01 T02480162  RH  059%=      5-min Rain = 0
KMC1 092206Z 05006KT 25/16 A299 RMK A01 T02490160  RH  058%=      5-min Rain = 0
KMC1 092207Z 04007KT 25/15 A299 RMK A01 T02480152  RH  055%=      5-min Rain = 0
KMC1 092208Z 05006KT 25/15 A2991 RMK A01 T02470152  RH  055%=      5-min Rain = 0
KMC1 092209Z 04006KT 25/15 A2991 RMK A01 T02470154  RH  056%=      5-min Rain = 0
KMC1 092210Z 04008KT 25/15 A2991 RMK A01 T02460147  RH  054%=      5-min Rain = 0
KMC1 092211Z 05006KT 25/15 A2991 RMK A01 T02460151  RH  055%=      5-min Rain = 0
KMC1 092212Z 04007KT 25/15 A2991 RMK A01 T02450150  RH  055%=      5-min Rain = 0
KMC1 092213Z 05006KT 25/15 A2992 RMK A01 T02450152  RH  056%=      5-min Rain = 0
KMC1 092214Z 06005KT 24/15 A2992 RMK A01 T02440153  RH  057%=      5-min Rain = 0
KMC1 092215Z 05006KT 25/15 A2992 RMK A01 T02450153  RH  057%=      5-min Rain = 0
KMC1 092216Z 06004KT 24/15 A2992 RMK A01 T02440152  RH  057%=      5-min Rain = 0
KMC1 092217Z 05006KT 24/15 A2992 RMK A01 T02440154  RH  057%=      5-min Rain = 0
KMC1 092218Z 05005KT 24/15 A2992 RMK A01 T02440151  RH  056%=      5-min Rain = 0
KMC1 092219Z 06003KT 24/15 A2992 RMK A01 T02440154  RH  057%=      5-min Rain = 0
KMC1 092220Z 04004KT 24/16 A2992 RMK A01 T02440155  RH  057%=      5-min Rain = 0
KMC1 092221Z 04004KT 24/16 A2992 RMK A01 T02440156  RH  058%=      5-min Rain = 0
KMC1 092222Z 05006KT 24/15 A2992 RMK A01 T02440152  RH  057%=      5-min Rain = 0
KMC1 092223Z 05004KT 24/15 A2992 RMK A01 T02430152  RH  057%=      5-min Rain = 0
KMC1 092224Z 04006KT 24/16 A2992 RMK A01 T02440156  RH  058%=      5-min Rain = 0
KMC1 092225Z 04005KT 24/15 A2992 RMK A01 T02430153  RH  057%=      5-min Rain = 0
KMC1 092226Z 04006KT 24/16 A2992 RMK A01 T02430155  RH  058%=      5-min Rain = 0
KMC1 092227Z 05007KT 24/15 A2992 RMK A01 T02430153  RH  057%=      5-min Rain = 0
KMC1 092228Z 04007KT 24/15 A2993 RMK A01 T02430151  RH  056%=      5-min Rain = 0
KMC1 092229Z 04006KT 24/15 A2993 RMK A01 T02430152  RH  057%=      5-min Rain = 0
KMC1 092230Z 04005KT 24/16 A2993 RMK A01 T02420156  RH  058%=      5-min Rain = 0
KMC1 092231Z 04005KT 24/16 A2993 RMK A01 T02410156  RH  059%=      5-min Rain = 0
KMC1 092232Z 04006KT 24/16 A2993 RMK A01 T02410155  RH  059%=      5-min Rain = 0
KMC1 092233Z 04005KT 24/16 A2993 RMK A01 T02410157  RH  059%=      5-min Rain = 0
KMC1 092234Z 04006KT 24/16 A2993 RMK A01 T02400155  RH  059%=      5-min Rain = 0
KMC1 092235Z 05006KT 24/16 A2993 RMK A01 T02390156  RH  060%=      5-min Rain = 0
KMC1 092236Z 05006KT 24/16 A2993 RMK A01 T02390156  RH  060%=      5-min Rain = 0
KMC1 092237Z 04004KT 24/16 A2992 RMK A01 T02390157  RH  060%=      5-min Rain = 0
KMC1 092238Z 04006KT 24/16 A2992 RMK A01 T02390156  RH  060%=      5-min Rain = 0
KMC1 092239Z 04006KT 24/16 A2992 RMK A01 T02390155  RH  059%=      5-min Rain = 0
KMC1 092240Z 04006KT 24/16 A2992 RMK A01 T02400156  RH  059%=      5-min Rain = 0
KMC1 092241Z 03006KT 24/15 A2992 RMK A01 T02400152  RH  058%=      5-min Rain = 0
KMC1 092242Z 04004KT 24/16 A2992 RMK A01 T02410157  RH  060%=      5-min Rain = 0
KMC1 092243Z 04004KT 24/16 A2992 RMK A01 T02410156  RH  059%=      5-min Rain = 0
KMC1 092244Z 04004KT 24/16 A2992 RMK A01 T02410157  RH  060%=      5-min Rain = 0
KMC1 092245Z 04005KT 24/16 A2992 RMK A01 T02400157  RH  060%=      5-min Rain = 0
KMC1 092246Z 04005KT 24/15 A2993 RMK A01 T02400153  RH  058%=      5-min Rain = 0
KMC1 092247Z 04004KT 24/16 A2993 RMK A01 T02400155  RH  059%=      5-min Rain = 0
KMC1 092248Z 03004KT 24/16 A2993 RMK A01 T02390155  RH  059%=      5-min Rain = 0
KMC1 092249Z 02003KT 24/16 A2993 RMK A01 T02390159  RH  061%=      5-min Rain = 0
KMC1 092250Z 01004KT 24/16 A2993 RMK A01 T02380158  RH  061%=      5-min Rain = 0
KMC1 092251Z 01004KT 24/16 A2993 RMK A01 T02380159  RH  061%=      5-min Rain = 0
KMC1 092252Z 01005KT 24/16 A2993 RMK A01 T02370158  RH  061%=      5-min Rain = 0
KMC1 092253Z 36005KT 24/16 A2993 RMK A01 T02370160  RH  062%=      5-min Rain = 0
KMC1 092254Z 35005KT 24/16 A2994 RMK A01 T02370158  RH  061%=      5-min Rain = 0
KMC1 092255Z 35005KT 24/16 A2994 RMK A01 T02360155  RH  060%=      5-min Rain = 0
KMC1 092256Z 35004KT 24/16 A2993 RMK A01 T02360157  RH  061%=      5-min Rain = 0
KMC1 092257Z 00004KT 24/16 A2993 RMK A01 T02350158  RH  062%=      5-min Rain = 0
KMC1 092258Z 36004KT 24/15 A2993 RMK A01 T02350153  RH  060%=      5-min Rain = 0
KMC1 092259Z 01004KT 24/15 A2993 RMK A01 T02350153  RH  060%=      5-min Rain = 0
KMC1 092300Z 01003KT 24/16 A2993 RMK A01 T02360157  RH  061%=      5-min Rain = 0
KMC1 092301Z 02002KT 24/16 A2993 RMK A01 T02360158  RH  062%=      5-min Rain = 0
KMC1 092302Z 02003KT 24/16 A2993 RMK A01 T02360157  RH  061%=      5-min Rain = 0
KMC1 092303Z 02003KT 24/16 A2994 RMK A01 T02360157  RH  061%=      5-min Rain = 0
KMC1 092304Z 02001KT 24/16 A2994 RMK A01 T02360158  RH  062%=      5-min Rain = 0
KMC1 092305Z 06001KT 24/16 A2994 RMK A01 T02360159  RH  062%=      5-min Rain = 0
KMC1 092306Z 05002KT 24/16 A2994 RMK A01 T02350158  RH  062%=      5-min Rain = 0
KMC1 092307Z 07001KT 24/16 A2993 RMK A01 T02350164  RH  064%=      5-min Rain = 0
KMC1 092308Z 08002KT 24/16 A2993 RMK A01 T02350164  RH  065%=      5-min Rain = 0
KMC1 092309Z 09002KT 23/17 A2994 RMK A01 T02340165  RH  065%=      5-min Rain = 0
KMC1 092310Z 08003KT 23/16 A2994 RMK A01 T02330163  RH  065%=      5-min Rain = 0
KMC1 092311Z 07002KT 23/16 A2994 RMK A01 T02330162  RH  064%=      5-min Rain = 0
KMC1 092312Z 08002KT 23/16 A2994 RMK A01 T02320158  RH  063%=      5-min Rain = 0
KMC1 092313Z 07001KT 23/16 A2994 RMK A01 T02320160  RH  064%=      5-min Rain = 0
KMC1 092314Z 06000KT 23/16 A2994 RMK A01 T02320161  RH  064%=      5-min Rain = 0
KMC1 092315Z 00000KT 23/16 A2995 RMK A01 T02320161  RH  064%=      5-min Rain = 0
KMC1 092316Z 01000KT 23/16 A2995 RMK A01 T02320164  RH  065%=      5-min Rain = 0
KMC1 092317Z 03000KT 23/16 A2995 RMK A01 T02320161  RH  064%=      5-min Rain = 0
KMC1 092318Z 00000KT 23/16 A2995 RMK A01 T02320162  RH  065%=      5-min Rain = 0
KMC1 092319Z 36000KT 23/16 A2995 RMK A01 T02320159  RH  063%=      5-min Rain = 0
KMC1 092320Z 36000KT 23/16 A2996 RMK A01 T02320161  RH  064%=      5-min Rain = 0
KMC1 092321Z 34001KT 23/16 A2996 RMK A01 T02320162  RH  065%=      5-min Rain = 0
KMC1 092322Z 34001KT 23/16 A2996 RMK A01 T02320164  RH  066%=      5-min Rain = 0
KMC1 092323Z 31001KT 23/16 A2996 RMK A01 T02310160  RH  064%=      5-min Rain = 0
KMC1 092324Z 30001KT 23/16 A2996 RMK A01 T02310164  RH  066%=      5-min Rain = 0
KMC1 092325Z 29001KT 23/16 A2996 RMK A01 T02310164  RH  066%=      5-min Rain = 0
KMC1 092326Z 28002KT 23/17 A2996 RMK A01 T02310170  RH  069%=      5-min Rain = 0
KMC1 092327Z 27002KT 23/17 A2997 RMK A01 T02300170  RH  069%=      5-min Rain = 0
KMC1 092328Z 27002KT 23/17 A2997 RMK A01 T02300166  RH  067%=      5-min Rain = 0
KMC1 092329Z 27002KT 23/17 A2997 RMK A01 T02290166  RH  068%=      5-min Rain = 0
KMC1 092330Z 28002KT 23/17 A2997 RMK A01 T02290167  RH  068%=      5-min Rain = 0
KMC1 092331Z 29002KT 23/17 A2997 RMK A01 T02290170  RH  070%=      5-min Rain = 0
KMC1 092332Z 29002KT 23/17 A2997 RMK A01 T02280171  RH  070%=      5-min Rain = 0
KMC1 092333Z 29002KT 23/17 A2997 RMK A01 T02280172  RH  071%=      5-min Rain = 0
KMC1 092334Z 29002KT 23/17 A2997 RMK A01 T02270173  RH  071%=      5-min Rain = 0
KMC1 092335Z 29002KT 23/18 A2997 RMK A01 T02270177  RH  073%=      5-min Rain = 0
KMC1 092336Z 30002KT 23/18 A2997 RMK A01 T02270180  RH  075%=      5-min Rain = 0
KMC1 092337Z 30002KT 23/18 A2997 RMK A01 T02260177  RH  074%=      5-min Rain = 0
KMC1 092338Z 30002KT 23/17 A2997 RMK A01 T02250174  RH  073%=      5-min Rain = 0
KMC1 092339Z 29002KT 22/17 A2996 RMK A01 T02240173  RH  073%=      5-min Rain = 0
KMC1 092340Z 29001KT 22/18 A2996 RMK A01 T02240179  RH  076%=      5-min Rain = 0
KMC1 092341Z 29000KT 22/18 A2996 RMK A01 T02240175  RH  074%=      5-min Rain = 0
KMC1 092342Z 00000KT 22/18 A2996 RMK A01 T02230180  RH  077%=      5-min Rain = 0
KMC1 092343Z 35001KT 22/17 A2996 RMK A01 T02210173  RH  074%=      5-min Rain = 0
KMC1 092344Z 35001KT 22/17 A2996 RMK A01 T02200168  RH  072%=      5-min Rain = 0
KMC1 092345Z 08000KT 22/17 A2995 RMK A01 T02190167  RH  072%=      5-min Rain = 0
KMC1 092346Z 08002KT 22/17 A2995 RMK A01 T02190168  RH  073%=      5-min Rain = 0
KMC1 092347Z 04001KT 22/18 A2995 RMK A01 T02180176  RH  077%=      5-min Rain = 0
KMC1 092348Z 01003KT 22/18 A2995 RMK A01 T02170176  RH  077%=      5-min Rain = 0
KMC1 092349Z 00003KT 22/17 A2995 RMK A01 T02160165  RH  073%=      5-min Rain = 0
KMC1 092350Z 00003KT 22/17 A2995 RMK A01 T02170168  RH  074%=      5-min Rain = 0
KMC1 092351Z 01003KT 22/17 A2995 RMK A01 T02180173  RH  076%=      5-min Rain = 0
KMC1 092352Z 02003KT 22/18 A2994 RMK A01 T02180177  RH  078%=      5-min Rain = 0
KMC1 092353Z 02003KT 22/18 A2994 RMK A01 T02170179  RH  079%=      5-min Rain = 0
KMC1 092354Z 02003KT 22/18 A2994 RMK A01 T02160182  RH  081%=      5-min Rain = 0
KMC1 092355Z 03003KT 22/19 A2994 RMK A01 T02150187  RH  084%=      5-min Rain = 0.01
KMC1 092356Z 03003KT 22/19 A2994 RMK A01 T02160194  RH  087%=      5-min Rain = 0
KMC1 092357Z 03003KT 22/19 A2993 RMK A01 T02150193  RH  087%=      5-min Rain = 0
KMC1 092358Z 04002KT 22/19 A2993 RMK A01 T02150192  RH  087%=      5-min Rain = 0
KMC1 092359Z 05002KT 21/19 A2993 RMK A01 T02140189  RH  086%=      5-min Rain = 0
KMC1 100000Z 05001KT 21/19 A2993 RMK A01 T02140191  RH  087%=      5-min Rain = 0
KMC1 100001Z 03001KT 21/19 A2993 RMK A01 T02140188  RH  085%=      5-min Rain = 0
KMC1 100002Z 36001KT 21/19 A2993 RMK A01 T02130186  RH  084%=      5-min Rain = 0
KMC1 100003Z 00001KT 21/18 A2993 RMK A01 T02130184  RH  083%=      5-min Rain = 0
KMC1 100004Z 35002KT 21/18 A2993 RMK A01 T02140182  RH  082%=      5-min Rain = 0
KMC1 100005Z 34002KT 21/18 A2993 RMK A01 T02130175  RH  079%=      5-min Rain = 0
KMC1 100006Z 34002KT 21/17 A2993 RMK A01 T02130171  RH  077%=      5-min Rain = 0
KMC1 100007Z 34003KT 21/17 A2993 RMK A01 T02130168  RH  075%=      5-min Rain = 0
KMC1 100008Z 33003KT 21/17 A2993 RMK A01 T02130169  RH  076%=      5-min Rain = 0
KMC1 100009Z 33003KT 21/16 A2993 RMK A01 T02130162  RH  073%=      5-min Rain = 0
KMC1 100010Z 33003KT 21/16 A2993 RMK A01 T02130162  RH  072%=      5-min Rain = 0
KMC1 100011Z 32003KT 21/17 A2993 RMK A01 T02130165  RH  074%=      5-min Rain = 0
KMC1 100012Z 31003KT 21/17 A2993 RMK A01 T02130165  RH  074%=      5-min Rain = 0
KMC1 100013Z 29002KT 21/17 A2993 RMK A01 T02120174  RH  079%=      5-min Rain = 0
KMC1 100014Z 28002KT 21/17 A2993 RMK A01 T02100174  RH  080%=      5-min Rain = 0
KMC1 100015Z 27003KT 21/18 A2993 RMK A01 T02080177  RH  082%=      5-min Rain = 0
KMC1 100016Z 27003KT 21/18 A2993 RMK A01 T02070179  RH  084%=      5-min Rain = 0
KMC1 100017Z 28003KT 21/18 A2993 RMK A01 T02050180  RH  085%=      5-min Rain = 0
KMC1 100018Z 28003KT 21/18 A2993 RMK A01 T02050181  RH  086%=      5-min Rain = 0
KMC1 100019Z 30002KT 20/18 A2993 RMK A01 T02040180  RH  086%=      5-min Rain = 0
KMC1 100020Z 32002KT 20/18 A2993 RMK A01 T02030177  RH  085%=      5-min Rain = 0
KMC1 100021Z 34002KT 20/18 A2993 RMK A01 T02030180  RH  086%=      5-min Rain = 0
KMC1 100022Z 00003KT 20/18 A2992 RMK A01 T02030175  RH  084%=      5-min Rain = 0
KMC1 100023Z 02004KT 20/17 A2992 RMK A01 T02030173  RH  083%=      5-min Rain = 0
KMC1 100024Z 01004KT 20/17 A2992 RMK A01 T02030166  RH  079%=      5-min Rain = 0
KMC1 100025Z 02005KT 20/16 A2992 RMK A01 T02040162  RH  077%=      5-min Rain = 0
KMC1 100026Z 02005KT 20/16 A2992 RMK A01 T02040161  RH  076%=      5-min Rain = 0
KMC1 100027Z 01005KT 20/16 A2992 RMK A01 T02040159  RH  075%=      5-min Rain = 0
KMC1 100028Z 01005KT 21/16 A2992 RMK A01 T02050159  RH  075%=      5-min Rain = 0
KMC1 100029Z 02005KT 20/16 A2992 RMK A01 T02040157  RH  074%=      5-min Rain = 0
KMC1 100030Z 02004KT 21/16 A2992 RMK A01 T02050159  RH  075%=      5-min Rain = 0
KMC1 100031Z 03004KT 20/16 A2993 RMK A01 T02040163  RH  077%=      5-min Rain = 0
KMC1 100032Z 04003KT 20/16 A2993 RMK A01 T02030163  RH  077%=      5-min Rain = 0
KMC1 100033Z 06003KT 20/17 A2992 RMK A01 T02030166  RH  079%=      5-min Rain = 0
KMC1 100034Z 07002KT 20/17 A2992 RMK A01 T02010167  RH  080%=      5-min Rain = 0
KMC1 100035Z 07002KT 20/17 A2992 RMK A01 T02000167  RH  081%=      5-min Rain = 0
KMC1 100036Z 07002KT 20/17 A2993 RMK A01 T02000170  RH  083%=      5-min Rain = 0
KMC1 100037Z 06002KT 20/17 A2993 RMK A01 T01990170  RH  083%=      5-min Rain = 0
KMC1 100038Z 05002KT 20/17 A2993 RMK A01 T01980170  RH  083%=      5-min Rain = 0
KMC1 100039Z 05002KT 20/17 A2993 RMK A01 T01980169  RH  083%=      5-min Rain = 0
KMC1 100040Z 05002KT 20/17 A2993 RMK A01 T01980169  RH  084%=      5-min Rain = 0
KMC1 100041Z 05002KT 20/17 A2993 RMK A01 T01970169  RH  084%=      5-min Rain = 0
KMC1 100042Z 06002KT 20/17 A2993 RMK A01 T01970168  RH  084%=      5-min Rain = 0
KMC1 100043Z 07002KT 20/17 A2993 RMK A01 T01960167  RH  083%=      5-min Rain = 0
KMC1 100044Z 08003KT 20/17 A2993 RMK A01 T01960172  RH  086%=      5-min Rain = 0
KMC1 100045Z 08003KT 20/17 A2993 RMK A01 T01950171  RH  086%=      5-min Rain = 0
KMC1 100046Z 08003KT 20/17 A2993 RMK A01 T01950171  RH  086%=      5-min Rain = 0
KMC1 100047Z 09003KT 19/17 A2993 RMK A01 T01940170  RH  086%=      5-min Rain = 0
KMC1 100048Z 09004KT 19/17 A2993 RMK A01 T01940171  RH  086%=      5-min Rain = 0
KMC1 100049Z 09004KT 19/17 A2992 RMK A01 T01940172  RH  087%=      5-min Rain = 0
KMC1 100050Z 09004KT 19/17 A2992 RMK A01 T01930174  RH  088%=      5-min Rain = 0
KMC1 100051Z 09004KT 19/17 A2992 RMK A01 T01930174  RH  089%=      5-min Rain = 0
KMC1 100052Z 09003KT 19/17 A2992 RMK A01 T01920174  RH  089%=      5-min Rain = 0
KMC1 100053Z 09003KT 19/17 A2992 RMK A01 T01920174  RH  090%=      5-min Rain = 0
KMC1 100054Z 09004KT 19/17 A2992 RMK A01 T01910172  RH  089%=      5-min Rain = 0
KMC1 100055Z 08004KT 19/17 A2992 RMK A01 T01910171  RH  088%=      5-min Rain = 0
KMC1 100056Z 07004KT 19/17 A2992 RMK A01 T01910170  RH  088%=      5-min Rain = 0
KMC1 100057Z 06003KT 19/17 A2993 RMK A01 T01910169  RH  087%=      5-min Rain = 0
KMC1 100058Z 05003KT 19/17 A2993 RMK A01 T01910168  RH  087%=      5-min Rain = 0
KMC1 100059Z 04003KT 19/17 A2993 RMK A01 T01910167  RH  086%=      5-min Rain = 0
KMC1 100100Z 04004KT 19/17 A2993 RMK A01 T01910167  RH  086%=      5-min Rain = 0
KMC1 100101Z 04003KT 19/17 A2993 RMK A01 T01910167  RH  086%=      5-min Rain = 0
KMC1 100102Z 04004KT 19/17 A2993 RMK A01 T01910166  RH  085%=      5-min Rain = 0
KMC1 100103Z 03004KT 19/17 A2993 RMK A01 T01920166  RH  085%=      5-min Rain = 0
KMC1 100104Z 03003KT 19/17 A2993 RMK A01 T01920167  RH  085%=      5-min Rain = 0
KMC1 100105Z 03003KT 19/17 A2993 RMK A01 T01920167  RH  085%=      5-min Rain = 0
KMC1 100106Z 03003KT 19/17 A2993 RMK A01 T01920166  RH  085%=      5-min Rain = 0
KMC1 100107Z 03003KT 19/17 A2993 RMK A01 T01930165  RH  084%=      5-min Rain = 0
KMC1 100108Z 03003KT 19/16 A2993 RMK A01 T01930164  RH  084%=      5-min Rain = 0
KMC1 100109Z 03003KT 19/16 A2993 RMK A01 T01930164  RH  084%=      5-min Rain = 0
KMC1 100110Z 01003KT 19/16 A2993 RMK A01 T01930164  RH  083%=      5-min Rain = 0
KMC1 100111Z 01003KT 19/16 A2993 RMK A01 T01930164  RH  084%=      5-min Rain = 0
KMC1 100112Z 01003KT 19/16 A2993 RMK A01 T01930164  RH  083%=      5-min Rain = 0
KMC1 100113Z 01003KT 19/16 A2993 RMK A01 T01930164  RH  083%=      5-min Rain = 0.01
KMC1 100114Z 01004KT 19/16 A2993 RMK A01 T01930164  RH  083%=      5-min Rain = 0
KMC1 100115Z 01003KT 19/17 A2993 RMK A01 T01940165  RH  084%=      5-min Rain = 0
KMC1 100116Z 02004KT 19/16 A2994 RMK A01 T01930164  RH  083%=      5-min Rain = 0
KMC1 100117Z 02003KT 19/16 A2994 RMK A01 T01940163  RH  082%=      5-min Rain = 0
KMC1 100118Z 01003KT 19/16 A2994 RMK A01 T01940163  RH  082%=      5-min Rain = 0
KMC1 100119Z 01004KT 19/16 A2994 RMK A01 T01940163  RH  082%=      5-min Rain = 0
KMC1 100120Z 36004KT 19/16 A2994 RMK A01 T01940163  RH  082%=      5-min Rain = 0
KMC1 100121Z 36004KT 19/16 A2994 RMK A01 T01940164  RH  083%=      5-min Rain = 0
KMC1 100122Z 36004KT 20/17 A2994 RMK A01 T01950165  RH  083%=      5-min Rain = 0
KMC1 100123Z 01004KT 19/17 A2994 RMK A01 T01940165  RH  083%=      5-min Rain = 0
KMC1 100124Z 01004KT 19/16 A2994 RMK A01 T01940163  RH  083%=      5-min Rain = 0
KMC1 100125Z 02004KT 19/16 A2994 RMK A01 T01940162  RH  082%=      5-min Rain = 0
KMC1 100126Z 03003KT 19/16 A2994 RMK A01 T01930159  RH  080%=      5-min Rain = 0
KMC1 100127Z 03004KT 19/16 A2994 RMK A01 T01940159  RH  080%=      5-min Rain = 0
KMC1 100128Z 03004KT 19/16 A2994 RMK A01 T01940161  RH  081%=      5-min Rain = 0
KMC1 100129Z 03003KT 19/16 A2994 RMK A01 T01940162  RH  082%=      5-min Rain = 0
KMC1 100130Z 03004KT 19/16 A2994 RMK A01 T01940163  RH  082%=      5-min Rain = 0
KMC1 100131Z 03005KT 19/16 A2994 RMK A01 T01930161  RH  082%=      5-min Rain = 0
KMC1 100132Z 03004KT 19/16 A2994 RMK A01 T01930160  RH  082%=      5-min Rain = 0
KMC1 100133Z 03005KT 19/16 A2995 RMK A01 T01920160  RH  081%=      5-min Rain = 0
KMC1 100134Z 03005KT 19/16 A2995 RMK A01 T01930159  RH  081%=      5-min Rain = 0
KMC1 100135Z 03004KT 19/16 A2995 RMK A01 T01930159  RH  081%=      5-min Rain = 0
KMC1 100136Z 03005KT 19/16 A2995 RMK A01 T01930158  RH  080%=      5-min Rain = 0
KMC1 100137Z 03004KT 19/16 A2995 RMK A01 T01930158  RH  080%=      5-min Rain = 0
KMC1 100138Z 02005KT 19/16 A2995 RMK A01 T01930159  RH  080%=      5-min Rain = 0
KMC1 100139Z 02004KT 19/16 A2995 RMK A01 T01930159  RH  081%=      5-min Rain = 0
KMC1 100140Z 03004KT 19/16 A2995 RMK A01 T01930159  RH  081%=      5-min Rain = 0
KMC1 100141Z 02004KT 19/16 A2995 RMK A01 T01930160  RH  081%=      5-min Rain = 0
KMC1 100142Z 02004KT 19/16 A2995 RMK A01 T01930160  RH  081%=      5-min Rain = 0
KMC1 100143Z 03004KT 19/16 A2995 RMK A01 T01930161  RH  081%=      5-min Rain = 0
KMC1 100144Z 02004KT 19/16 A2995 RMK A01 T01930161  RH  081%=      5-min Rain = 0
KMC1 100145Z 03004KT 19/16 A2995 RMK A01 T01930161  RH  082%=      5-min Rain = 0
KMC1 100146Z 02004KT 19/16 A2995 RMK A01 T01930160  RH  082%=      5-min Rain = 0
KMC1 100147Z 02004KT 19/16 A2995 RMK A01 T01930162  RH  082%=      5-min Rain = 0
KMC1 100148Z 02004KT 19/16 A2995 RMK A01 T01930162  RH  082%=      5-min Rain = 0
KMC1 100149Z 02005KT 19/16 A2995 RMK A01 T01920161  RH  082%=      5-min Rain = 0
KMC1 100150Z 01005KT 19/16 A2995 RMK A01 T01920162  RH  082%=      5-min Rain = 0
KMC1 100151Z 01005KT 19/16 A2995 RMK A01 T01920160  RH  082%=      5-min Rain = 0
KMC1 100152Z 00005KT 19/16 A2996 RMK A01 T01920159  RH  081%=      5-min Rain = 0
KMC1 100153Z 00005KT 19/16 A2996 RMK A01 T01920159  RH  081%=      5-min Rain = 0
KMC1 100154Z 00006G11KT 19/16 A2996 RMK A01 T01920160  RH  082%=      5-min Rain = 0
KMC1 100155Z 02008KT 19/16 A2996 RMK A01 T01920160  RH  081%=      5-min Rain = 0
KMC1 100156Z 02008KT 19/16 A2997 RMK A01 T01920160  RH  082%=      5-min Rain = 0
KMC1 100157Z 02009KT 19/16 A2997 RMK A01 T01920160  RH  082%=      5-min Rain = 0
KMC1 100158Z 02009KT 19/16 A2997 RMK A01 T01920159  RH  081%=      5-min Rain = 0
KMC1 100159Z 03009KT 19/16 A2997 RMK A01 T01920159  RH  081%=      5-min Rain = 0
KMC1 100200Z 03007KT 19/16 A2996 RMK A01 T01920160  RH  082%=      5-min Rain = 0
KMC1 100201Z 03007KT 19/16 A2996 RMK A01 T01910161  RH  082%=      5-min Rain = 0
KMC1 100202Z 03008KT 19/16 A2996 RMK A01 T01900161  RH  083%=      5-min Rain = 0
KMC1 100203Z 03007KT 19/16 A2997 RMK A01 T01900161  RH  083%=      5-min Rain = 0
KMC1 100204Z 03007KT 19/16 A2997 RMK A01 T01890161  RH  083%=      5-min Rain = 0
KMC1 100205Z 03009KT 19/16 A2997 RMK A01 T01890159  RH  083%=      5-min Rain = 0
KMC1 100206Z 04009KT 19/16 A2997 RMK A01 T01880158  RH  083%=      5-min Rain = 0
KMC1 100207Z 04007KT 19/16 A2997 RMK A01 T01880158  RH  083%=      5-min Rain = 0
KMC1 100208Z 04008KT 19/16 A2997 RMK A01 T01870158  RH  083%=      5-min Rain = 0
KMC1 100209Z 05007KT 19/16 A2997 RMK A01 T01870158  RH  083%=      5-min Rain = 0
KMC1 100210Z 05006KT 19/16 A2997 RMK A01 T01860158  RH  084%=      5-min Rain = 0
KMC1 100211Z 05006KT 19/16 A2997 RMK A01 T01860159  RH  084%=      5-min Rain = 0
KMC1 100212Z 04006KT 19/16 A2997 RMK A01 T01850159  RH  084%=      5-min Rain = 0
KMC1 100213Z 03005KT 19/16 A2998 RMK A01 T01850159  RH  085%=      5-min Rain = 0
KMC1 100214Z 04006KT 19/16 A2998 RMK A01 T01850159  RH  085%=      5-min Rain = 0
KMC1 100215Z 03005KT 18/16 A2998 RMK A01 T01840159  RH  085%=      5-min Rain = 0
KMC1 100216Z 04005KT 18/16 A2998 RMK A01 T01830159  RH  086%=      5-min Rain = 0
KMC1 100217Z 04005KT 18/16 A2998 RMK A01 T01830159  RH  086%=      5-min Rain = 0
KMC1 100218Z 04006KT 18/16 A2998 RMK A01 T01830159  RH  086%=      5-min Rain = 0
KMC1 100219Z 04007KT 18/16 A2998 RMK A01 T01820159  RH  086%=      5-min Rain = 0
KMC1 100220Z 05005KT 18/16 A2998 RMK A01 T01830159  RH  086%=      5-min Rain = 0
KMC1 100221Z 05006KT 18/16 A2998 RMK A01 T01830159  RH  086%=      5-min Rain = 0
KMC1 100222Z 05006KT 18/16 A2999 RMK A01 T01830159  RH  086%=      5-min Rain = 0
KMC1 100223Z 04007KT 18/16 A2999 RMK A01 T01820158  RH  086%=      5-min Rain = 0
KMC1 100224Z 05006KT 18/16 A2999 RMK A01 T01820158  RH  086%=      5-min Rain = 0
KMC1 100225Z 04006KT 18/16 A2999 RMK A01 T01820159  RH  086%=      5-min Rain = 0
KMC1 100226Z 05005KT 18/16 A2999 RMK A01 T01820158  RH  086%=      5-min Rain = 0
KMC1 100227Z 05005KT 18/16 A2999 RMK A01 T01810159  RH  087%=      5-min Rain = 0
KMC1 100228Z 05004KT 18/16 A2999 RMK A01 T01810159  RH  087%=      5-min Rain = 0
KMC1 100229Z 04005KT 18/16 A2999 RMK A01 T01810159  RH  087%=      5-min Rain = 0
KMC1 100230Z 05004KT 18/16 A2999 RMK A01 T01800159  RH  087%=      5-min Rain = 0
KMC1 100231Z 05005KT 18/16 A2999 RMK A01 T01800158  RH  087%=      5-min Rain = 0
KMC1 100232Z 05004KT 18/16 A2999 RMK A01 T01790159  RH  088%=      5-min Rain = 0
KMC1 100233Z 05005KT 18/16 A2999 RMK A01 T01790159  RH  088%=      5-min Rain = 0
KMC1 100234Z 05005KT 18/16 A30 RMK A01 T01790159  RH  088%=      5-min Rain = 0
KMC1 100235Z 05005KT 18/16 A30 RMK A01 T01790159  RH  088%=      5-min Rain = 0
KMC1 100236Z 06005KT 18/16 A30 RMK A01 T01780159  RH  088%=      5-min Rain = 0
KMC1 100237Z 06004KT 18/16 A30 RMK A01 T01780159  RH  089%=      5-min Rain = 0
KMC1 100238Z 07003KT 18/16 A30 RMK A01 T01770158  RH  089%=      5-min Rain = 0
KMC1 100239Z 08004KT 18/16 A30 RMK A01 T01770159  RH  089%=      5-min Rain = 0
KMC1 100240Z 07004KT 18/16 A30 RMK A01 T01770159  RH  089%=      5-min Rain = 0
KMC1 100241Z 06004KT 18/16 A30 RMK A01 T01770158  RH  089%=      5-min Rain = 0
KMC1 100242Z 06003KT 18/16 A30 RMK A01 T01760158  RH  089%=      5-min Rain = 0
KMC1 100243Z 06005KT 18/16 A30 RMK A01 T01770159  RH  089%=      5-min Rain = 0
KMC1 100244Z 05005KT 18/16 A30 RMK A01 T01760158  RH  089%=      5-min Rain = 0
KMC1 100245Z 05004KT 18/16 A30 RMK A01 T01760158  RH  089%=      5-min Rain = 0
KMC1 100246Z 05005KT 18/16 A30 RMK A01 T01760158  RH  089%=      5-min Rain = 0
KMC1 100247Z 05007KT 18/16 A30 RMK A01 T01760158  RH  089%=      5-min Rain = 0
KMC1 100248Z 04005KT 18/16 A3001 RMK A01 T01760158  RH  089%=      5-min Rain = 0
KMC1 100249Z 03006KT 18/16 A3001 RMK A01 T01760158  RH  089%=      5-min Rain = 0
KMC1 100250Z 03006KT 18/16 A3001 RMK A01 T01760158  RH  089%=      5-min Rain = 0
KMC1 100251Z 03006KT 18/16 A3001 RMK A01 T01750158  RH  089%=      5-min Rain = 0
KMC1 100252Z 04006KT 18/16 A3001 RMK A01 T01750158  RH  089%=      5-min Rain = 0
KMC1 100253Z 05005KT 18/16 A3001 RMK A01 T01750158  RH  090%=      5-min Rain = 0
KMC1 100254Z 06003KT 18/16 A3001 RMK A01 T01750158  RH  090%=      5-min Rain = 0
KMC1 100255Z 06004KT 17/16 A3001 RMK A01 T01740157  RH  090%=      5-min Rain = 0
KMC1 100256Z 05005KT 17/16 A3001 RMK A01 T01740158  RH  090%=      5-min Rain = 0
KMC1 100257Z 04004KT 17/16 A3001 RMK A01 T01740157  RH  090%=      5-min Rain = 0
KMC1 100258Z 04005KT 17/16 A3001 RMK A01 T01730157  RH  090%=      5-min Rain = 0
KMC1 100259Z 05005KT 17/16 A3001 RMK A01 T01730157  RH  090%=      5-min Rain = 0
KMC1 100300Z 05005KT 17/16 A3001 RMK A01 T01730157  RH  091%=      5-min Rain = 0
KMC1 100301Z 05004KT 17/16 A3001 RMK A01 T01730157  RH  091%=      5-min Rain = 0
KMC1 100302Z 06004KT 17/16 A3001 RMK A01 T01720157  RH  091%=      5-min Rain = 0
KMC1 100303Z 05004KT 17/16 A3001 RMK A01 T01720156  RH  091%=      5-min Rain = 0
KMC1 100304Z 05004KT 17/16 A3002 RMK A01 T01720156  RH  091%=      5-min Rain = 0
KMC1 100305Z 05005KT 17/16 A3002 RMK A01 T01720156  RH  091%=      5-min Rain = 0
KMC1 100306Z 06004KT 17/16 A3002 RMK A01 T01720156  RH  090%=      5-min Rain = 0
KMC1 100307Z 06004KT 17/16 A3002 RMK A01 T01720156  RH  090%=      5-min Rain = 0
KMC1 100308Z 05003KT 17/16 A3002 RMK A01 T01720156  RH  090%=      5-min Rain = 0
KMC1 100309Z 05004KT 17/16 A3002 RMK A01 T01720156  RH  090%=      5-min Rain = 0
KMC1 100310Z 05004KT 17/16 A3002 RMK A01 T01720156  RH  091%=      5-min Rain = 0
KMC1 100311Z 06003KT 17/16 A3002 RMK A01 T01710155  RH  091%=      5-min Rain = 0
KMC1 100312Z 07004KT 17/16 A3002 RMK A01 T01700155  RH  091%=      5-min Rain = 0
KMC1 100313Z 07003KT 17/16 A3002 RMK A01 T01700155  RH  091%=      5-min Rain = 0
KMC1 100314Z 06004KT 17/16 A3002 RMK A01 T01700155  RH  091%=      5-min Rain = 0
KMC1 100315Z 06004KT 17/16 A3002 RMK A01 T01700155  RH  091%=      5-min Rain = 0
KMC1 100316Z 06004KT 17/16 A3002 RMK A01 T01690155  RH  091%=      5-min Rain = 0
KMC1 100317Z 06004KT 17/16 A3002 RMK A01 T01690155  RH  091%=      5-min Rain = 0
KMC1 100318Z 06003KT 17/16 A3002 RMK A01 T01690155  RH  092%=      5-min Rain = 0
KMC1 100319Z 07005KT 17/16 A3002 RMK A01 T01690155  RH  092%=      5-min Rain = 0
KMC1 100320Z 06004KT 17/16 A3002 RMK A01 T01680155  RH  092%=      5-min Rain = 0
KMC1 100321Z 07005KT 17/16 A3002 RMK A01 T01680155  RH  092%=      5-min Rain = 0
KMC1 100322Z 08005KT 17/16 A3002 RMK A01 T01680155  RH  092%=      5-min Rain = 0
KMC1 100323Z 07005KT 17/16 A3002 RMK A01 T01680155  RH  092%=      5-min Rain = 0
KMC1 100324Z 07004KT 17/16 A3002 RMK A01 T01690155  RH  092%=      5-min Rain = 0
KMC1 100325Z 07004KT 17/16 A3002 RMK A01 T01680155  RH  092%=      5-min Rain = 0
KMC1 100326Z 07004KT 17/16 A3002 RMK A01 T01680155  RH  092%=      5-min Rain = 0
KMC1 100327Z 08005KT 17/16 A3002 RMK A01 T01680155  RH  092%=      5-min Rain = 0
KMC1 100328Z 07004KT 17/15 A3002 RMK A01 T01680154  RH  092%=      5-min Rain = 0
KMC1 100329Z 07004KT 17/15 A3002 RMK A01 T01680154  RH  092%=      5-min Rain = 0
KMC1 100330Z 06003KT 17/15 A3002 RMK A01 T01670154  RH  092%=      5-min Rain = 0
KMC1 100331Z 06004KT 17/15 A3002 RMK A01 T01670154  RH  092%=      5-min Rain = 0
KMC1 100332Z 07004KT 17/15 A3002 RMK A01 T01670154  RH  092%=      5-min Rain = 0
KMC1 100333Z 08004KT 17/15 A3002 RMK A01 T01670154  RH  092%=      5-min Rain = 0
KMC1 100334Z 08003KT 17/15 A3002 RMK A01 T01670154  RH  092%=      5-min Rain = 0
KMC1 100335Z 08003KT 17/15 A3002 RMK A01 T01670154  RH  092%=      5-min Rain = 0
KMC1 100336Z 08003KT 17/15 A3002 RMK A01 T01670154  RH  092%=      5-min Rain = 0
KMC1 100337Z 08003KT 17/15 A3002 RMK A01 T01660154  RH  092%=      5-min Rain = 0
KMC1 100338Z 08003KT 17/15 A3002 RMK A01 T01660154  RH  093%=      5-min Rain = 0
KMC1 100339Z 09003KT 17/15 A3002 RMK A01 T01660154  RH  093%=      5-min Rain = 0
KMC1 100340Z 08004KT 17/15 A3002 RMK A01 T01660154  RH  093%=      5-min Rain = 0
KMC1 100341Z 08004KT 17/15 A3002 RMK A01 T01660154  RH  093%=      5-min Rain = 0
KMC1 100342Z 09003KT 17/15 A3002 RMK A01 T01650153  RH  093%=      5-min Rain = 0
KMC1 100343Z 09004KT 17/15 A3002 RMK A01 T01650153  RH  093%=      5-min Rain = 0
KMC1 100344Z 08003KT 17/15 A3002 RMK A01 T01650153  RH  093%=      5-min Rain = 0
KMC1 100345Z 08003KT 17/15 A3002 RMK A01 T01650153  RH  093%=      5-min Rain = 0
KMC1 100346Z 07003KT 16/15 A3002 RMK A01 T01640152  RH  093%=      5-min Rain = 0
KMC1 100347Z 07002KT 16/15 A3002 RMK A01 T01640152  RH  093%=      5-min Rain = 0
KMC1 100348Z 07003KT 16/15 A3002 RMK A01 T01640152  RH  093%=      5-min Rain = 0
KMC1 100349Z 08003KT 16/15 A3002 RMK A01 T01640152  RH  093%=      5-min Rain = 0
KMC1 100350Z 08002KT 16/15 A3003 RMK A01 T01640152  RH  093%=      5-min Rain = 0
KMC1 100351Z 07002KT 16/15 A3003 RMK A01 T01630152  RH  093%=      5-min Rain = 0
KMC1 100352Z 06003KT 16/15 A3003 RMK A01 T01630152  RH  093%=      5-min Rain = 0
KMC1 100353Z 06003KT 16/15 A3003 RMK A01 T01630152  RH  093%=      5-min Rain = 0
KMC1 100354Z 05003KT 16/15 A3003 RMK A01 T01630152  RH  093%=      5-min Rain = 0
KMC1 100355Z 05003KT 16/15 A3003 RMK A01 T01630152  RH  094%=      5-min Rain = 0
KMC1 100356Z 05003KT 16/15 A3003 RMK A01 T01620152  RH  094%=      5-min Rain = 0
KMC1 100357Z 05003KT 16/15 A3003 RMK A01 T01620152  RH  094%=      5-min Rain = 0
KMC1 100358Z 05003KT 16/15 A3003 RMK A01 T01620152  RH  094%=      5-min Rain = 0
KMC1 100359Z 05003KT 16/15 A3003 RMK A01 T01620151  RH  094%=      5-min Rain = 0
KMC1 100400Z 05004KT 16/15 A3003 RMK A01 T01610151  RH  094%=      5-min Rain = 0
KMC1 100401Z 05003KT 16/15 A3003 RMK A01 T01610152  RH  094%=      5-min Rain = 0
KMC1 100402Z 05003KT 16/15 A3003 RMK A01 T01610152  RH  094%=      5-min Rain = 0
KMC1 100403Z 05003KT 16/15 A3003 RMK A01 T01610152  RH  094%=      5-min Rain = 0
KMC1 100404Z 04003KT 16/15 A3003 RMK A01 T01610152  RH  094%=      5-min Rain = 0
KMC1 100405Z 04003KT 16/15 A3003 RMK A01 T01610152  RH  094%=      5-min Rain = 0
KMC1 100406Z 04003KT 16/15 A3003 RMK A01 T01610152  RH  094%=      5-min Rain = 0
KMC1 100407Z 03003KT 16/15 A3003 RMK A01 T01610152  RH  094%=      5-min Rain = 0
KMC1 100408Z 03003KT 16/15 A3003 RMK A01 T01610152  RH  094%=      5-min Rain = 0
KMC1 100409Z 02003KT 16/15 A3003 RMK A01 T01600151  RH  094%=      5-min Rain = 0
KMC1 100410Z 01003KT 16/15 A3003 RMK A01 T01600152  RH  095%=      5-min Rain = 0
KMC1 100411Z 36002KT 16/15 A3003 RMK A01 T01600151  RH  095%=      5-min Rain = 0
KMC1 100412Z 36003KT 16/15 A3003 RMK A01 T01600151  RH  095%=      5-min Rain = 0
KMC1 100413Z 01004KT 16/15 A3003 RMK A01 T01590151  RH  095%=      5-min Rain = 0
KMC1 100414Z 01003KT 16/15 A3003 RMK A01 T01590151  RH  095%=      5-min Rain = 0
KMC1 100415Z 01003KT 16/15 A3003 RMK A01 T01590152  RH  096%=      5-min Rain = 0
KMC1 100416Z 01003KT 16/15 A3003 RMK A01 T01580152  RH  096%=      5-min Rain = 0
KMC1 100417Z 01003KT 16/15 A3003 RMK A01 T01580152  RH  096%=      5-min Rain = 0
KMC1 100418Z 01003KT 16/15 A3003 RMK A01 T01580152  RH  096%=      5-min Rain = 0
KMC1 100419Z 01004KT 16/15 A3003 RMK A01 T01580152  RH  096%=      5-min Rain = 0
KMC1 100420Z 01004KT 16/15 A3003 RMK A01 T01580151  RH  096%=      5-min Rain = 0
KMC1 100421Z 01003KT 16/15 A3003 RMK A01 T01580152  RH  096%=      5-min Rain = 0
KMC1 100422Z 02002KT 16/15 A3003 RMK A01 T01580151  RH  096%=      5-min Rain = 0
KMC1 100423Z 03003KT 16/15 A3003 RMK A01 T01580151  RH  096%=      5-min Rain = 0
KMC1 100424Z 03003KT 16/15 A3003 RMK A01 T01570151  RH  096%=      5-min Rain = 0
KMC1 100425Z 04003KT 16/15 A3003 RMK A01 T01570150  RH  096%=      5-min Rain = 0
KMC1 100426Z 04003KT 16/15 A3003 RMK A01 T01570149  RH  095%=      5-min Rain = 0
KMC1 100427Z 05002KT 16/15 A3003 RMK A01 T01570149  RH  095%=      5-min Rain = 0
KMC1 100428Z 06002KT 16/15 A3003 RMK A01 T01560149  RH  095%=      5-min Rain = 0
KMC1 100429Z 06002KT 16/15 A3003 RMK A01 T01560148  RH  095%=      5-min Rain = 0
KMC1 100430Z 06002KT 16/15 A3003 RMK A01 T01560148  RH  095%=      5-min Rain = 0
KMC1 100431Z 07002KT 16/15 A3003 RMK A01 T01550148  RH  095%=      5-min Rain = 0
KMC1 100432Z 07002KT 16/15 A3003 RMK A01 T01550148  RH  096%=      5-min Rain = 0
KMC1 100433Z 07002KT 15/15 A3003 RMK A01 T01540148  RH  096%=      5-min Rain = 0
KMC1 100434Z 08002KT 15/15 A3003 RMK A01 T01540148  RH  096%=      5-min Rain = 0
KMC1 100435Z 08002KT 15/15 A3003 RMK A01 T01530148  RH  096%=      5-min Rain = 0
KMC1 100436Z 09002KT 15/15 A3003 RMK A01 T01530147  RH  097%=      5-min Rain = 0
KMC1 100437Z 10003KT 15/15 A3003 RMK A01 T01520148  RH  097%=      5-min Rain = 0
KMC1 100438Z 09003KT 15/15 A3003 RMK A01 T01520148  RH  097%=      5-min Rain = 0
KMC1 100439Z 09003KT 15/15 A3003 RMK A01 T01520147  RH  097%=      5-min Rain = 0
KMC1 100440Z 09003KT 15/15 A3003 RMK A01 T01510147  RH  097%=      5-min Rain = 0
KMC1 100441Z 08003KT 15/15 A3003 RMK A01 T01510147  RH  097%=      5-min Rain = 0
KMC1 100442Z 08003KT 15/15 A3003 RMK A01 T01510147  RH  097%=      5-min Rain = 0
KMC1 100443Z 08003KT 15/15 A3003 RMK A01 T01500146  RH  097%=      5-min Rain = 0
KMC1 100444Z 08003KT 15/15 A3003 RMK A01 T01500146  RH  097%=      5-min Rain = 0
KMC1 100445Z 08004KT 15/15 A3003 RMK A01 T01500146  RH  098%=      5-min Rain = 0
KMC1 100446Z 08004KT 15/15 A3003 RMK A01 T01500147  RH  098%=      5-min Rain = 0
KMC1 100447Z 08003KT 15/15 A3003 RMK A01 T01500146  RH  098%=      5-min Rain = 0
KMC1 100448Z 08003KT 15/15 A3003 RMK A01 T01500146  RH  098%=      5-min Rain = 0
KMC1 100449Z 08003KT 15/15 A3003 RMK A01 T01490146  RH  098%=      5-min Rain = 0
KMC1 100450Z 07003KT 15/15 A3003 RMK A01 T01490146  RH  098%=      5-min Rain = 0
KMC1 100451Z 07003KT 15/15 A3003 RMK A01 T01490146  RH  098%=      5-min Rain = 0
KMC1 100452Z 07002KT 15/15 A3003 RMK A01 T01480145  RH  098%=      5-min Rain = 0
KMC1 100453Z 06002KT 15/15 A3003 RMK A01 T01490145  RH  098%=      5-min Rain = 0
KMC1 100454Z 06002KT 15/15 A3003 RMK A01 T01490145  RH  098%=      5-min Rain = 0
KMC1 100455Z 05003KT 15/15 A3003 RMK A01 T01490146  RH  098%=      5-min Rain = 0
KMC1 100456Z 05003KT 15/15 A3003 RMK A01 T01490146  RH  098%=      5-min Rain = 0
KMC1 100457Z 05003KT 15/15 A3003 RMK A01 T01490145  RH  098%=      5-min Rain = 0
KMC1 100458Z 05003KT 15/15 A3003 RMK A01 T01490145  RH  098%=      5-min Rain = 0
KMC1 100459Z 05003KT 15/15 A3003 RMK A01 T01490145  RH  098%=      5-min Rain = 0

Page generated in 0.1248 seconds.